Observation data for Palo Duro Reservoir 1NW on 05/26/2019      Previous  Date  Next       Current Mesonet Observations  Soil Data  Daily Summary Page  Observations in Plain Language
KPD4 260500Z 11007KT 16/15 A2998 RMK A01 T01610150  RH  093%=      5-min Rain = 0
KPD4 260501Z 11008KT 16/15 A2998 RMK A01 T01610150  RH  093%=      5-min Rain = 0
KPD4 260502Z 11007KT 16/15 A2998 RMK A01 T01610150  RH  093%=      5-min Rain = 0
KPD4 260503Z 11005KT 16/15 A2998 RMK A01 T01610150  RH  093%=      5-min Rain = 0
KPD4 260504Z 12006KT 16/15 A2998 RMK A01 T01620151  RH  093%=      5-min Rain = 0
KPD4 260505Z 11008KT 16/15 A2997 RMK A01 T01610151  RH  093%=      5-min Rain = 0
KPD4 260506Z 11007KT 16/15 A2997 RMK A01 T01610151  RH  093%=      5-min Rain = 0
KPD4 260507Z 11006KT 16/15 A2997 RMK A01 T01610151  RH  094%=      5-min Rain = 0
KPD4 260508Z 11007KT 16/15 A2997 RMK A01 T01620152  RH  094%=      5-min Rain = 0
KPD4 260509Z 11006KT 16/15 A2997 RMK A01 T01620152  RH  094%=      5-min Rain = 0
KPD4 260510Z 11006KT 16/15 A2997 RMK A01 T01610152  RH  094%=      5-min Rain = 0
KPD4 260511Z 12006KT 16/15 A2997 RMK A01 T01610152  RH  094%=      5-min Rain = 0
KPD4 260512Z 12008KT 16/15 A2997 RMK A01 T01610152  RH  094%=      5-min Rain = 0
KPD4 260513Z 12008KT 16/15 A2997 RMK A01 T01620152  RH  094%=      5-min Rain = 0
KPD4 260514Z 12009KT 16/15 A2997 RMK A01 T01620153  RH  094%=      5-min Rain = 0
KPD4 260515Z 12006KT 16/15 A2997 RMK A01 T01610152  RH  094%=      5-min Rain = 0
KPD4 260516Z 13006KT 16/15 A2997 RMK A01 T01620152  RH  094%=      5-min Rain = 0
KPD4 260517Z 12004KT 16/15 A2997 RMK A01 T01610152  RH  094%=      5-min Rain = 0
KPD4 260518Z 11004KT 16/15 A2997 RMK A01 T01610153  RH  094%=      5-min Rain = 0
KPD4 260519Z 13006KT 16/15 A2997 RMK A01 T01620153  RH  095%=      5-min Rain = 0
KPD4 260520Z 12006KT 16/15 A2997 RMK A01 T01610153  RH  094%=      5-min Rain = 0
KPD4 260521Z 12006KT 16/15 A2997 RMK A01 T01610153  RH  094%=      5-min Rain = 0
KPD4 260522Z 13007KT 16/15 A2997 RMK A01 T01610153  RH  095%=      5-min Rain = 0
KPD4 260523Z 13005KT 16/15 A2997 RMK A01 T01620153  RH  095%=      5-min Rain = 0
KPD4 260524Z 12006KT 16/15 A2997 RMK A01 T01620153  RH  095%=      5-min Rain = 0
KPD4 260525Z 12008KT 16/15 A2997 RMK A01 T01620153  RH  095%=      5-min Rain = 0
KPD4 260526Z 12007KT 16/15 A2997 RMK A01 T01620154  RH  095%=      5-min Rain = 0
KPD4 260527Z 12005KT 16/15 A2997 RMK A01 T01620153  RH  095%=      5-min Rain = 0
KPD4 260528Z 12006KT 16/15 A2997 RMK A01 T01620153  RH  095%=      5-min Rain = 0
KPD4 260529Z 11007KT 16/15 A2997 RMK A01 T01620153  RH  095%=      5-min Rain = 0
KPD4 260530Z 11006KT 16/15 A2997 RMK A01 T01620153  RH  095%=      5-min Rain = 0
KPD4 260531Z 12005KT 16/15 A2997 RMK A01 T01620153  RH  095%=      5-min Rain = 0
KPD4 260532Z 11007KT 16/15 A2997 RMK A01 T01620153  RH  095%=      5-min Rain = 0
KPD4 260533Z 12006KT 16/15 A2997 RMK A01 T01620154  RH  095%=      5-min Rain = 0
KPD4 260534Z 12006KT 16/15 A2997 RMK A01 T01620154  RH  095%=      5-min Rain = 0
KPD4 260535Z 13007KT 16/15 A2997 RMK A01 T01620154  RH  095%=      5-min Rain = 0
KPD4 260536Z 12007KT 16/15 A2997 RMK A01 T01620154  RH  095%=      5-min Rain = 0
KPD4 260537Z 13007KT 16/15 A2997 RMK A01 T01620154  RH  095%=      5-min Rain = 0
KPD4 260538Z 13007KT 16/15 A2997 RMK A01 T01620154  RH  095%=      5-min Rain = 0
KPD4 260539Z 12007KT 16/15 A2997 RMK A01 T01610154  RH  095%=      5-min Rain = 0
KPD4 260540Z 13007KT 16/15 A2997 RMK A01 T01620154  RH  095%=      5-min Rain = 0
KPD4 260541Z 13009KT 16/15 A2997 RMK A01 T01610154  RH  095%=      5-min Rain = 0
KPD4 260542Z 13006KT 16/15 A2997 RMK A01 T01610154  RH  095%=      5-min Rain = 0
KPD4 260543Z 14006KT 16/15 A2997 RMK A01 T01610154  RH  095%=      5-min Rain = 0
KPD4 260544Z 13006KT 16/15 A2997 RMK A01 T01610154  RH  096%=      5-min Rain = 0
KPD4 260545Z 14007KT 16/16 A2997 RMK A01 T01620155  RH  096%=      5-min Rain = 0
KPD4 260546Z 15006KT 16/15 A2997 RMK A01 T01620154  RH  095%=      5-min Rain = 0
KPD4 260547Z 15006KT 16/16 A2997 RMK A01 T01620155  RH  095%=      5-min Rain = 0
KPD4 260548Z 15006KT 16/15 A2997 RMK A01 T01620154  RH  095%=      5-min Rain = 0
KPD4 260549Z 16005KT 16/15 A2997 RMK A01 T01620154  RH  095%=      5-min Rain = 0
KPD4 260550Z 16006KT 16/16 A2997 RMK A01 T01620155  RH  095%=      5-min Rain = 0
KPD4 260551Z 16006KT 16/16 A2997 RMK A01 T01620155  RH  095%=      5-min Rain = 0
KPD4 260552Z 15006KT 16/16 A2997 RMK A01 T01620155  RH  095%=      5-min Rain = 0
KPD4 260553Z 15007KT 16/16 A2997 RMK A01 T01620155  RH  096%=      5-min Rain = 0
KPD4 260554Z 15006KT 16/16 A2997 RMK A01 T01620155  RH  096%=      5-min Rain = 0
KPD4 260555Z 14007KT 16/16 A2997 RMK A01 T01620155  RH  096%=      5-min Rain = 0
KPD4 260556Z 15008KT 16/16 A2997 RMK A01 T01620155  RH  096%=      5-min Rain = 0
KPD4 260557Z 15007KT 16/16 A2997 RMK A01 T01620155  RH  096%=      5-min Rain = 0
KPD4 260558Z 16005KT 16/16 A2997 RMK A01 T01620155  RH  095%=      5-min Rain = 0
KPD4 260559Z 16006KT 16/16 A2997 RMK A01 T01620155  RH  095%=      5-min Rain = 0
KPD4 260600Z 16006KT 16/16 A2997 RMK A01 T01620155  RH  095%=      5-min Rain = 0
KPD4 260601Z 16007KT 16/16 A2998 RMK A01 T01620155  RH  095%=      5-min Rain = 0
KPD4 260602Z 16006KT 16/16 A2998 RMK A01 T01630155  RH  095%=      5-min Rain = 0
KPD4 260603Z 16007KT 16/16 A2998 RMK A01 T01630155  RH  095%=      5-min Rain = 0
KPD4 260604Z 16006KT 16/16 A2998 RMK A01 T01630156  RH  095%=      5-min Rain = 0
KPD4 260605Z 16004KT 16/16 A2998 RMK A01 T01630156  RH  095%=      5-min Rain = 0
KPD4 260606Z 15004KT 16/16 A2998 RMK A01 T01630156  RH  095%=      5-min Rain = 0
KPD4 260607Z 16005KT 16/16 A2998 RMK A01 T01630156  RH  095%=      5-min Rain = 0
KPD4 260608Z 15005KT 16/16 A2997 RMK A01 T01630155  RH  095%=      5-min Rain = 0
KPD4 260609Z 15006KT 16/16 A2997 RMK A01 T01640155  RH  095%=      5-min Rain = 0
KPD4 260610Z 15005KT 16/16 A2997 RMK A01 T01640156  RH  095%=      5-min Rain = 0
KPD4 260611Z 15006KT 16/16 A2997 RMK A01 T01640156  RH  095%=      5-min Rain = 0
KPD4 260612Z 14006KT 16/16 A2997 RMK A01 T01640156  RH  095%=      5-min Rain = 0
KPD4 260613Z 14006KT 16/16 A2997 RMK A01 T01640156  RH  095%=      5-min Rain = 0
KPD4 260614Z 14006KT 16/16 A2997 RMK A01 T01640156  RH  095%=      5-min Rain = 0
KPD4 260615Z 14006KT 16/16 A2997 RMK A01 T01640156  RH  095%=      5-min Rain = 0
KPD4 260616Z 14006KT 16/16 A2997 RMK A01 T01640156  RH  095%=      5-min Rain = 0
KPD4 260617Z 14007KT 16/16 A2997 RMK A01 T01640156  RH  095%=      5-min Rain = 0
KPD4 260618Z 13007KT 16/16 A2996 RMK A01 T01640156  RH  095%=      5-min Rain = 0
KPD4 260619Z 14006KT 16/16 A2996 RMK A01 T01640156  RH  095%=      5-min Rain = 0
KPD4 260620Z 14005KT 16/16 A2996 RMK A01 T01640156  RH  095%=      5-min Rain = 0
KPD4 260621Z 15004KT 16/16 A2996 RMK A01 T01640156  RH  095%=      5-min Rain = 0
KPD4 260622Z 15004KT 16/16 A2996 RMK A01 T01640156  RH  095%=      5-min Rain = 0
KPD4 260623Z 16005KT 16/16 A2996 RMK A01 T01640156  RH  095%=      5-min Rain = 0
KPD4 260624Z 16006KT 16/16 A2996 RMK A01 T01630156  RH  095%=      5-min Rain = 0
KPD4 260625Z 17005KT 16/16 A2996 RMK A01 T01630156  RH  095%=      5-min Rain = 0
KPD4 260626Z 16007KT 16/16 A2996 RMK A01 T01630156  RH  095%=      5-min Rain = 0
KPD4 260627Z 17005KT 16/16 A2996 RMK A01 T01630156  RH  095%=      5-min Rain = 0
KPD4 260628Z 17005KT 16/16 A2996 RMK A01 T01630156  RH  096%=      5-min Rain = 0
KPD4 260629Z 16005KT 16/16 A2996 RMK A01 T01630156  RH  096%=      5-min Rain = 0
KPD4 260630Z 16007KT 16/16 A2996 RMK A01 T01630157  RH  096%=      5-min Rain = 0
KPD4 260631Z 16007KT 16/16 A2996 RMK A01 T01630157  RH  096%=      5-min Rain = 0
KPD4 260632Z 16007KT 16/16 A2996 RMK A01 T01630157  RH  096%=      5-min Rain = 0
KPD4 260633Z 17006KT 16/16 A2996 RMK A01 T01640157  RH  096%=      5-min Rain = 0
KPD4 260634Z 16006KT 16/16 A2996 RMK A01 T01640157  RH  096%=      5-min Rain = 0
KPD4 260635Z 16007KT 16/16 A2996 RMK A01 T01640157  RH  096%=      5-min Rain = 0
KPD4 260636Z 16005KT 16/16 A2996 RMK A01 T01640157  RH  096%=      5-min Rain = 0
KPD4 260637Z 15007KT 17/16 A2996 RMK A01 T01650158  RH  095%=      5-min Rain = 0
KPD4 260638Z 15010KT 17/16 A2996 RMK A01 T01650158  RH  095%=      5-min Rain = 0
KPD4 260639Z 15010KT 17/16 A2996 RMK A01 T01660158  RH  095%=      5-min Rain = 0
KPD4 260640Z 15011KT 17/16 A2996 RMK A01 T01660158  RH  095%=      5-min Rain = 0
KPD4 260641Z 15010KT 17/16 A2996 RMK A01 T01670158  RH  094%=      5-min Rain = 0
KPD4 260642Z 15009KT 17/16 A2996 RMK A01 T01670158  RH  094%=      5-min Rain = 0
KPD4 260643Z 15009KT 17/16 A2996 RMK A01 T01670158  RH  094%=      5-min Rain = 0
KPD4 260644Z 16007KT 17/16 A2996 RMK A01 T01670158  RH  094%=      5-min Rain = 0
KPD4 260645Z 15007KT 17/16 A2996 RMK A01 T01670158  RH  094%=      5-min Rain = 0
KPD4 260646Z 16007KT 17/16 A2995 RMK A01 T01680158  RH  094%=      5-min Rain = 0
KPD4 260647Z 16006KT 17/16 A2995 RMK A01 T01680158  RH  094%=      5-min Rain = 0
KPD4 260648Z 16009KT 17/16 A2995 RMK A01 T01680158  RH  094%=      5-min Rain = 0
KPD4 260649Z 16010KT 17/16 A2995 RMK A01 T01680158  RH  094%=      5-min Rain = 0
KPD4 260650Z 16010KT 17/16 A2995 RMK A01 T01690158  RH  093%=      5-min Rain = 0
KPD4 260651Z 15009KT 17/16 A2995 RMK A01 T01690158  RH  093%=      5-min Rain = 0
KPD4 260652Z 16008KT 17/16 A2995 RMK A01 T01690158  RH  093%=      5-min Rain = 0
KPD4 260653Z 16007KT 17/16 A2995 RMK A01 T01690158  RH  094%=      5-min Rain = 0
KPD4 260654Z 16008KT 17/16 A2996 RMK A01 T01690158  RH  094%=      5-min Rain = 0
KPD4 260655Z 16009KT 17/16 A2996 RMK A01 T01690158  RH  094%=      5-min Rain = 0
KPD4 260656Z 16007KT 17/16 A2996 RMK A01 T01690158  RH  094%=      5-min Rain = 0
KPD4 260657Z 18005KT 17/16 A2996 RMK A01 T01690159  RH  094%=      5-min Rain = 0
KPD4 260658Z 17005KT 17/16 A2996 RMK A01 T01690159  RH  094%=      5-min Rain = 0
KPD4 260659Z 18004KT 17/16 A2996 RMK A01 T01690158  RH  094%=      5-min Rain = 0
KPD4 260700Z 17004KT 17/16 A2996 RMK A01 T01680158  RH  094%=      5-min Rain = 0
KPD4 260701Z 19004KT 17/16 A2996 RMK A01 T01680158  RH  094%=      5-min Rain = 0
KPD4 260702Z 18005KT 17/16 A2996 RMK A01 T01680158  RH  094%=      5-min Rain = 0
KPD4 260703Z 19005KT 17/16 A2996 RMK A01 T01670158  RH  094%=      5-min Rain = 0
KPD4 260704Z 18006KT 17/16 A2996 RMK A01 T01670158  RH  094%=      5-min Rain = 0
KPD4 260705Z 18005KT 17/16 A2996 RMK A01 T01670158  RH  094%=      5-min Rain = 0
KPD4 260706Z 17006KT 17/16 A2996 RMK A01 T01670158  RH  095%=      5-min Rain = 0
KPD4 260707Z 17006KT 17/16 A2996 RMK A01 T01660157  RH  095%=      5-min Rain = 0
KPD4 260708Z 17004KT 17/16 A2996 RMK A01 T01660158  RH  095%=      5-min Rain = 0
KPD4 260709Z 17006KT 17/16 A2996 RMK A01 T01660158  RH  095%=      5-min Rain = 0
KPD4 260710Z 18004KT 17/16 A2996 RMK A01 T01660157  RH  095%=      5-min Rain = 0
KPD4 260711Z 17005KT 17/16 A2995 RMK A01 T01660158  RH  095%=      5-min Rain = 0
KPD4 260712Z 18004KT 17/16 A2995 RMK A01 T01660158  RH  095%=      5-min Rain = 0
KPD4 260713Z 18005KT 17/16 A2995 RMK A01 T01660158  RH  095%=      5-min Rain = 0
KPD4 260714Z 18005KT 17/16 A2995 RMK A01 T01660157  RH  095%=      5-min Rain = 0
KPD4 260715Z 17005KT 17/16 A2995 RMK A01 T01660158  RH  095%=      5-min Rain = 0
KPD4 260716Z 20004KT 17/16 A2995 RMK A01 T01660158  RH  095%=      5-min Rain = 0
KPD4 260717Z 19005KT 17/16 A2995 RMK A01 T01660157  RH  095%=      5-min Rain = 0
KPD4 260718Z 18004KT 17/16 A2995 RMK A01 T01660157  RH  095%=      5-min Rain = 0
KPD4 260719Z 21003KT 17/16 A2995 RMK A01 T01660157  RH  095%=      5-min Rain = 0
KPD4 260720Z 19003KT 17/16 A2995 RMK A01 T01660158  RH  095%=      5-min Rain = 0
KPD4 260721Z 19003KT 17/16 A2995 RMK A01 T01660157  RH  095%=      5-min Rain = 0
KPD4 260722Z 19004KT 17/16 A2995 RMK A01 T01650157  RH  095%=      5-min Rain = 0
KPD4 260723Z 20003KT 17/16 A2995 RMK A01 T01650157  RH  095%=      5-min Rain = 0
KPD4 260724Z 21003KT 17/16 A2995 RMK A01 T01650157  RH  095%=      5-min Rain = 0
KPD4 260725Z 22002KT 17/16 A2995 RMK A01 T01650157  RH  095%=      5-min Rain = 0
KPD4 260726Z 21003KT 17/16 A2995 RMK A01 T01650156  RH  095%=      5-min Rain = 0
KPD4 260727Z 19003KT 16/16 A2995 RMK A01 T01640156  RH  095%=      5-min Rain = 0
KPD4 260728Z 21003KT 16/16 A2995 RMK A01 T01630155  RH  095%=      5-min Rain = 0
KPD4 260729Z 20003KT 16/16 A2995 RMK A01 T01630156  RH  095%=      5-min Rain = 0
KPD4 260730Z 21003KT 16/16 A2995 RMK A01 T01630155  RH  095%=      5-min Rain = 0
KPD4 260731Z 22004KT 16/16 A2995 RMK A01 T01620155  RH  096%=      5-min Rain = 0
KPD4 260732Z 20004KT 16/16 A2995 RMK A01 T01620156  RH  096%=      5-min Rain = 0
KPD4 260733Z 19005KT 16/16 A2995 RMK A01 T01620156  RH  096%=      5-min Rain = 0
KPD4 260734Z 19005KT 16/16 A2995 RMK A01 T01630156  RH  096%=      5-min Rain = 0
KPD4 260735Z 19003KT 16/16 A2995 RMK A01 T01630156  RH  096%=      5-min Rain = 0
KPD4 260736Z 17004KT 16/16 A2995 RMK A01 T01630156  RH  096%=      5-min Rain = 0
KPD4 260737Z 18006KT 16/16 A2995 RMK A01 T01630157  RH  096%=      5-min Rain = 0
KPD4 260738Z 18007KT 16/16 A2995 RMK A01 T01630158  RH  096%=      5-min Rain = 0
KPD4 260739Z 18007KT 17/16 A2995 RMK A01 T01650159  RH  096%=      5-min Rain = 0
KPD4 260740Z 18006KT 17/16 A2995 RMK A01 T01660159  RH  096%=      5-min Rain = 0
KPD4 260741Z 17007KT 17/16 A2995 RMK A01 T01660160  RH  096%=      5-min Rain = 0
KPD4 260742Z 17007KT 17/16 A2995 RMK A01 T01660160  RH  096%=      5-min Rain = 0
KPD4 260743Z 17008KT 17/16 A2995 RMK A01 T01670160  RH  096%=      5-min Rain = 0
KPD4 260744Z 16008KT 17/16 A2995 RMK A01 T01680161  RH  096%=      5-min Rain = 0
KPD4 260745Z 16007KT 17/16 A2995 RMK A01 T01690162  RH  095%=      5-min Rain = 0
KPD4 260746Z 16007KT 17/16 A2995 RMK A01 T01690162  RH  095%=      5-min Rain = 0
KPD4 260747Z 16007KT 17/16 A2995 RMK A01 T01700162  RH  095%=      5-min Rain = 0
KPD4 260748Z 16008KT 17/16 A2995 RMK A01 T01710163  RH  095%=      5-min Rain = 0
KPD4 260749Z 16008KT 17/16 A2995 RMK A01 T01710163  RH  095%=      5-min Rain = 0
KPD4 260750Z 16010KT 17/16 A2995 RMK A01 T01720164  RH  095%=      5-min Rain = 0
KPD4 260751Z 16010KT 17/16 A2995 RMK A01 T01730164  RH  094%=      5-min Rain = 0
KPD4 260752Z 16010KT 17/16 A2995 RMK A01 T01730164  RH  094%=      5-min Rain = 0
KPD4 260753Z 15010KT 17/16 A2995 RMK A01 T01740164  RH  094%=      5-min Rain = 0
KPD4 260754Z 15010KT 17/16 A2995 RMK A01 T01740164  RH  094%=      5-min Rain = 0
KPD4 260755Z 15009KT 17/16 A2995 RMK A01 T01740164  RH  094%=      5-min Rain = 0
KPD4 260756Z 16009KT 17/17 A2995 RMK A01 T01740165  RH  094%=      5-min Rain = 0
KPD4 260757Z 16010KT 17/17 A2995 RMK A01 T01740165  RH  094%=      5-min Rain = 0
KPD4 260758Z 16009KT 18/17 A2995 RMK A01 T01750165  RH  094%=      5-min Rain = 0
KPD4 260759Z 16009KT 18/17 A2995 RMK A01 T01750165  RH  094%=      5-min Rain = 0
KPD4 260800Z 16010KT 18/17 A2995 RMK A01 T01750165  RH  094%=      5-min Rain = 0
KPD4 260801Z 16010KT 18/17 A2995 RMK A01 T01760166  RH  094%=      5-min Rain = 0
KPD4 260802Z 16008KT 18/17 A2995 RMK A01 T01760166  RH  094%=      5-min Rain = 0
KPD4 260803Z 17009KT 18/17 A2995 RMK A01 T01760166  RH  094%=      5-min Rain = 0
KPD4 260804Z 16010KT 18/17 A2995 RMK A01 T01770167  RH  094%=      5-min Rain = 0
KPD4 260805Z 17009KT 18/17 A2995 RMK A01 T01770167  RH  094%=      5-min Rain = 0
KPD4 260806Z 17011KT 18/17 A2995 RMK A01 T01770167  RH  094%=      5-min Rain = 0
KPD4 260807Z 17010KT 18/17 A2995 RMK A01 T01770167  RH  094%=      5-min Rain = 0
KPD4 260808Z 17011KT 18/17 A2995 RMK A01 T01780168  RH  094%=      5-min Rain = 0
KPD4 260809Z 17011KT 18/17 A2995 RMK A01 T01780168  RH  094%=      5-min Rain = 0
KPD4 260810Z 17011KT 18/17 A2995 RMK A01 T01790168  RH  094%=      5-min Rain = 0
KPD4 260811Z 17010KT 18/17 A2995 RMK A01 T01790168  RH  094%=      5-min Rain = 0
KPD4 260812Z 17010KT 18/17 A2995 RMK A01 T01790169  RH  094%=      5-min Rain = 0
KPD4 260813Z 17009KT 18/17 A2995 RMK A01 T01790169  RH  094%=      5-min Rain = 0
KPD4 260814Z 17009KT 18/17 A2995 RMK A01 T01790169  RH  094%=      5-min Rain = 0
KPD4 260815Z 17010KT 18/17 A2995 RMK A01 T01790169  RH  094%=      5-min Rain = 0
KPD4 260816Z 17009KT 18/17 A2995 RMK A01 T01790170  RH  094%=      5-min Rain = 0
KPD4 260817Z 17010KT 18/17 A2995 RMK A01 T01790170  RH  094%=      5-min Rain = 0
KPD4 260818Z 16010KT 18/17 A2995 RMK A01 T01800170  RH  094%=      5-min Rain = 0
KPD4 260819Z 17010KT 18/17 A2995 RMK A01 T01800170  RH  094%=      5-min Rain = 0
KPD4 260820Z 17008KT 18/17 A2995 RMK A01 T01800171  RH  094%=      5-min Rain = 0
KPD4 260821Z 17009KT 18/17 A2995 RMK A01 T01810171  RH  094%=      5-min Rain = 0
KPD4 260822Z 17009KT 18/17 A2995 RMK A01 T01810171  RH  094%=      5-min Rain = 0
KPD4 260823Z 18009KT 18/17 A2995 RMK A01 T01810171  RH  094%=      5-min Rain = 0
KPD4 260824Z 18011KT 18/17 A2995 RMK A01 T01810172  RH  094%=      5-min Rain = 0
KPD4 260825Z 18012KT 18/17 A2995 RMK A01 T01810172  RH  094%=      5-min Rain = 0
KPD4 260826Z 17011KT 18/17 A2995 RMK A01 T01810172  RH  094%=      5-min Rain = 0
KPD4 260827Z 17009KT 18/17 A2995 RMK A01 T01820172  RH  094%=      5-min Rain = 0
KPD4 260828Z 18009KT 18/17 A2995 RMK A01 T01820173  RH  094%=      5-min Rain = 0
KPD4 260829Z 17009KT 18/17 A2995 RMK A01 T01820173  RH  094%=      5-min Rain = 0
KPD4 260830Z 17011KT 18/17 A2995 RMK A01 T01820173  RH  094%=      5-min Rain = 0
KPD4 260831Z 17010KT 18/17 A2995 RMK A01 T01820173  RH  095%=      5-min Rain = 0
KPD4 260832Z 17012KT 18/17 A2995 RMK A01 T01820173  RH  095%=      5-min Rain = 0
KPD4 260833Z 17012KT 18/17 A2995 RMK A01 T01820173  RH  095%=      5-min Rain = 0
KPD4 260834Z 17012KT 18/17 A2995 RMK A01 T01820173  RH  095%=      5-min Rain = 0
KPD4 260835Z 17010KT 18/17 A2995 RMK A01 T01820173  RH  095%=      5-min Rain = 0
KPD4 260836Z 17012KT 18/17 A2995 RMK A01 T01820173  RH  095%=      5-min Rain = 0
KPD4 260837Z 17011KT 18/17 A2995 RMK A01 T01820173  RH  095%=      5-min Rain = 0
KPD4 260838Z 17010KT 18/17 A2995 RMK A01 T01820174  RH  095%=      5-min Rain = 0
KPD4 260839Z 18014KT 18/17 A2995 RMK A01 T01810173  RH  095%=      5-min Rain = 0
KPD4 260840Z 17014KT 18/17 A2995 RMK A01 T01810174  RH  095%=      5-min Rain = 0
KPD4 260841Z 17011KT 18/17 A2995 RMK A01 T01810174  RH  095%=      5-min Rain = 0
KPD4 260842Z 17012KT 18/17 A2995 RMK A01 T01810174  RH  096%=      5-min Rain = 0
KPD4 260843Z 17011KT 18/17 A2995 RMK A01 T01810174  RH  096%=      5-min Rain = 0
KPD4 260844Z 17012KT 18/17 A2995 RMK A01 T01810174  RH  096%=      5-min Rain = 0
KPD4 260845Z 18011KT 18/18 A2995 RMK A01 T01810175  RH  096%=      5-min Rain = 0
KPD4 260846Z 17011KT 18/18 A2995 RMK A01 T01810175  RH  096%=      5-min Rain = 0
KPD4 260847Z 17010KT 18/18 A2995 RMK A01 T01810175  RH  096%=      5-min Rain = 0
KPD4 260848Z 17014KT 18/18 A2995 RMK A01 T01810175  RH  096%=      5-min Rain = 0
KPD4 260849Z 17015KT 18/18 A2995 RMK A01 T01810175  RH  096%=      5-min Rain = 0
KPD4 260850Z 17011KT 18/18 A2995 RMK A01 T01810175  RH  096%=      5-min Rain = 0
KPD4 260851Z 17013KT 18/18 A2995 RMK A01 T01810176  RH  097%=      5-min Rain = 0
KPD4 260852Z 17013KT 18/18 A2995 RMK A01 T01810176  RH  097%=      5-min Rain = 0
KPD4 260853Z 17011KT 18/18 A2995 RMK A01 T01810176  RH  097%=      5-min Rain = 0
KPD4 260854Z 17012KT 18/18 A2995 RMK A01 T01810176  RH  097%=      5-min Rain = 0
KPD4 260855Z 18011KT 18/18 A2995 RMK A01 T01810176  RH  097%=      5-min Rain = 0
KPD4 260856Z 18013KT 18/18 A2995 RMK A01 T01810176  RH  097%=      5-min Rain = 0
KPD4 260857Z 18013KT 18/18 A2995 RMK A01 T01810176  RH  097%=      5-min Rain = 0
KPD4 260858Z 17012KT 18/18 A2995 RMK A01 T01810176  RH  097%=      5-min Rain = 0
KPD4 260859Z 17012KT 18/18 A2995 RMK A01 T01810176  RH  097%=      5-min Rain = 0
KPD4 260900Z 18012KT 18/18 A2995 RMK A01 T01810176  RH  097%=      5-min Rain = 0
KPD4 260901Z 17010KT 18/18 A2995 RMK A01 T01810176  RH  097%=      5-min Rain = 0
KPD4 260902Z 18011KT 18/18 A2995 RMK A01 T01810176  RH  097%=      5-min Rain = 0
KPD4 260903Z 18012KT 18/18 A2995 RMK A01 T01810176  RH  097%=      5-min Rain = 0
KPD4 260904Z 17015KT 18/18 A2995 RMK A01 T01810176  RH  097%=      5-min Rain = 0
KPD4 260905Z 18015KT 18/18 A2994 RMK A01 T01810176  RH  097%=      5-min Rain = 0
KPD4 260906Z 18012KT 18/18 A2995 RMK A01 T01810177  RH  097%=      5-min Rain = 0
KPD4 260907Z 17013KT 18/18 A2995 RMK A01 T01810177  RH  097%=      5-min Rain = 0
KPD4 260908Z 18013KT 18/18 A2995 RMK A01 T01810177  RH  097%=      5-min Rain = 0
KPD4 260909Z 18012KT 18/18 A2995 RMK A01 T01810177  RH  097%=      5-min Rain = 0
KPD4 260910Z 18013KT 18/18 A2995 RMK A01 T01810177  RH  097%=      5-min Rain = 0
KPD4 260911Z 17016KT 18/18 A2995 RMK A01 T01810177  RH  098%=      5-min Rain = 0
KPD4 260912Z 18013KT 18/18 A2995 RMK A01 T01810177  RH  098%=      5-min Rain = 0
KPD4 260913Z 18015KT 18/18 A2995 RMK A01 T01810178  RH  098%=      5-min Rain = 0
KPD4 260914Z 18015KT 18/18 A2995 RMK A01 T01810177  RH  098%=      5-min Rain = 0
KPD4 260915Z 18014KT 18/18 A2995 RMK A01 T01810178  RH  098%=      5-min Rain = 0
KPD4 260916Z 18015KT 18/18 A2995 RMK A01 T01810178  RH  098%=      5-min Rain = 0
KPD4 260917Z 18016KT 18/18 A2995 RMK A01 T01810178  RH  098%=      5-min Rain = 0
KPD4 260918Z 18014KT 18/18 A2995 RMK A01 T01820178  RH  098%=      5-min Rain = 0
KPD4 260919Z 18012KT 18/18 A2995 RMK A01 T01820178  RH  098%=      5-min Rain = 0
KPD4 260920Z 17013KT 18/18 A2995 RMK A01 T01820178  RH  098%=      5-min Rain = 0
KPD4 260921Z 18015G21KT 18/18 A2995 RMK A01 T01820178  RH  098%=      5-min Rain = 0
KPD4 260922Z 18014KT 18/18 A2994 RMK A01 T01810178  RH  098%=      5-min Rain = 0
KPD4 260923Z 18012KT 18/18 A2995 RMK A01 T01820179  RH  098%=      5-min Rain = 0
KPD4 260924Z 18014KT 18/18 A2994 RMK A01 T01820179  RH  098%=      5-min Rain = 0
KPD4 260925Z 18015KT 18/18 A2994 RMK A01 T01820179  RH  098%=      5-min Rain = 0
KPD4 260926Z 18016KT 18/18 A2994 RMK A01 T01820179  RH  098%=      5-min Rain = 0
KPD4 260927Z 18013G19KT 18/18 A2994 RMK A01 T01820179  RH  098%=      5-min Rain = 0
KPD4 260928Z 18016KT 18/18 A2994 RMK A01 T01820179  RH  098%=      5-min Rain = 0
KPD4 260929Z 18014KT 18/18 A2994 RMK A01 T01830180  RH  098%=      5-min Rain = 0
KPD4 260930Z 18014KT 18/18 A2994 RMK A01 T01830180  RH  098%=      5-min Rain = 0
KPD4 260931Z 18014KT 18/18 A2994 RMK A01 T01830180  RH  098%=      5-min Rain = 0
KPD4 260932Z 18011G16KT 18/18 A2994 RMK A01 T01830180  RH  098%=      5-min Rain = 0
KPD4 260933Z 18015KT 18/18 A2994 RMK A01 T01830180  RH  098%=      5-min Rain = 0
KPD4 260934Z 19015KT 18/18 A2994 RMK A01 T01830180  RH  098%=      5-min Rain = 0
KPD4 260935Z 17015KT 18/18 A2994 RMK A01 T01830180  RH  098%=      5-min Rain = 0
KPD4 260936Z 18015KT 18/18 A2994 RMK A01 T01830181  RH  098%=      5-min Rain = 0
KPD4 260937Z 18014G21KT 18/18 A2994 RMK A01 T01830181  RH  098%=      5-min Rain = 0
KPD4 260938Z 18016G21KT 18/18 A2994 RMK A01 T01830181  RH  098%=      5-min Rain = 0
KPD4 260939Z 18015KT 18/18 A2994 RMK A01 T01840181  RH  098%=      5-min Rain = 0
KPD4 260940Z 18015KT 18/18 A2994 RMK A01 T01840181  RH  098%=      5-min Rain = 0
KPD4 260941Z 18014KT 18/18 A2994 RMK A01 T01840181  RH  098%=      5-min Rain = 0
KPD4 260942Z 18015KT 18/18 A2994 RMK A01 T01840181  RH  098%=      5-min Rain = 0
KPD4 260943Z 18016KT 18/18 A2994 RMK A01 T01840182  RH  098%=      5-min Rain = 0
KPD4 260944Z 18013KT 18/18 A2994 RMK A01 T01840181  RH  098%=      5-min Rain = 0
KPD4 260945Z 18014KT 18/18 A2994 RMK A01 T01840182  RH  098%=      5-min Rain = 0
KPD4 260946Z 18014KT 18/18 A2994 RMK A01 T01840181  RH  098%=      5-min Rain = 0
KPD4 260947Z 19014KT 19/18 A2994 RMK A01 T01850182  RH  098%=      5-min Rain = 0
KPD4 260948Z 18015KT 19/18 A2994 RMK A01 T01850182  RH  098%=      5-min Rain = 0
KPD4 260949Z 18014KT 19/18 A2994 RMK A01 T01850182  RH  098%=      5-min Rain = 0
KPD4 260950Z 19015KT 19/18 A2994 RMK A01 T01850182  RH  098%=      5-min Rain = 0
KPD4 260951Z 18013KT 19/18 A2994 RMK A01 T01860183  RH  098%=      5-min Rain = 0
KPD4 260952Z 18015KT 19/18 A2994 RMK A01 T01850182  RH  098%=      5-min Rain = 0
KPD4 260953Z 19014KT 19/18 A2995 RMK A01 T01850182  RH  098%=      5-min Rain = 0
KPD4 260954Z 18012KT 19/18 A2995 RMK A01 T01850182  RH  098%=      5-min Rain = 0
KPD4 260955Z 18017KT 19/18 A2995 RMK A01 T01860182  RH  098%=      5-min Rain = 0
KPD4 260956Z 18015KT 19/18 A2995 RMK A01 T01860183  RH  098%=      5-min Rain = 0
KPD4 260957Z 18015KT 19/18 A2995 RMK A01 T01860183  RH  098%=      5-min Rain = 0
KPD4 260958Z 19014KT 19/18 A2995 RMK A01 T01860183  RH  098%=      5-min Rain = 0
KPD4 260959Z 18016KT 19/18 A2995 RMK A01 T01860183  RH  098%=      5-min Rain = 0
KPD4 261000Z 18016KT 19/18 A2995 RMK A01 T01870183  RH  098%=      5-min Rain = 0
KPD4 261001Z 19014KT 19/18 A2995 RMK A01 T01870183  RH  098%=      5-min Rain = 0
KPD4 261002Z 18013KT 19/18 A2995 RMK A01 T01870183  RH  098%=      5-min Rain = 0
KPD4 261003Z 19013KT 19/18 A2995 RMK A01 T01870183  RH  098%=      5-min Rain = 0
KPD4 261004Z 19013KT 19/18 A2995 RMK A01 T01870183  RH  098%=      5-min Rain = 0
KPD4 261005Z 19013KT 19/18 A2995 RMK A01 T01870183  RH  098%=      5-min Rain = 0
KPD4 261006Z 19013KT 19/18 A2995 RMK A01 T01870183  RH  098%=      5-min Rain = 0
KPD4 261007Z 18014KT 19/18 A2995 RMK A01 T01870184  RH  098%=      5-min Rain = 0
KPD4 261008Z 18015KT 19/18 A2995 RMK A01 T01870184  RH  098%=      5-min Rain = 0
KPD4 261009Z 18015KT 19/18 A2995 RMK A01 T01880184  RH  098%=      5-min Rain = 0
KPD4 261010Z 18014KT 19/18 A2995 RMK A01 T01870184  RH  098%=      5-min Rain = 0
KPD4 261011Z 18015KT 19/18 A2995 RMK A01 T01880184  RH  098%=      5-min Rain = 0
KPD4 261012Z 18014KT 19/18 A2995 RMK A01 T01870184  RH  098%=      5-min Rain = 0
KPD4 261013Z 18014G19KT 19/18 A2995 RMK A01 T01880184  RH  098%=      5-min Rain = 0
KPD4 261014Z 18017KT 19/18 A2995 RMK A01 T01880184  RH  097%=      5-min Rain = 0
KPD4 261015Z 18016KT 19/18 A2995 RMK A01 T01880184  RH  097%=      5-min Rain = 0
KPD4 261016Z 19017KT 19/18 A2995 RMK A01 T01880184  RH  097%=      5-min Rain = 0
KPD4 261017Z 19015KT 19/18 A2995 RMK A01 T01890184  RH  097%=      5-min Rain = 0
KPD4 261018Z 19015KT 19/18 A2995 RMK A01 T01890184  RH  097%=      5-min Rain = 0
KPD4 261019Z 18012G17KT 19/18 A2996 RMK A01 T01890184  RH  097%=      5-min Rain = 0
KPD4 261020Z 19015KT 19/18 A2995 RMK A01 T01890184  RH  097%=      5-min Rain = 0
KPD4 261021Z 18015KT 19/18 A2995 RMK A01 T01890184  RH  097%=      5-min Rain = 0
KPD4 261022Z 18015KT 19/19 A2995 RMK A01 T01890185  RH  097%=      5-min Rain = 0
KPD4 261023Z 18015KT 19/19 A2995 RMK A01 T01900185  RH  097%=      5-min Rain = 0
KPD4 261024Z 18014KT 19/19 A2995 RMK A01 T01900185  RH  097%=      5-min Rain = 0
KPD4 261025Z 18013KT 19/19 A2996 RMK A01 T01890185  RH  097%=      5-min Rain = 0
KPD4 261026Z 18015KT 19/19 A2996 RMK A01 T01900185  RH  097%=      5-min Rain = 0
KPD4 261027Z 19016KT 19/19 A2996 RMK A01 T01900185  RH  097%=      5-min Rain = 0
KPD4 261028Z 18014KT 19/19 A2996 RMK A01 T01900185  RH  097%=      5-min Rain = 0
KPD4 261029Z 18015KT 19/19 A2996 RMK A01 T01900185  RH  097%=      5-min Rain = 0
KPD4 261030Z 18015KT 19/19 A2996 RMK A01 T01900185  RH  097%=      5-min Rain = 0
KPD4 261031Z 18013KT 19/19 A2996 RMK A01 T01900185  RH  097%=      5-min Rain = 0
KPD4 261032Z 18012KT 19/19 A2996 RMK A01 T01900185  RH  097%=      5-min Rain = 0
KPD4 261033Z 18015KT 19/19 A2996 RMK A01 T01910185  RH  097%=      5-min Rain = 0
KPD4 261034Z 19015KT 19/19 A2996 RMK A01 T01910185  RH  097%=      5-min Rain = 0
KPD4 261035Z 18013KT 19/19 A2996 RMK A01 T01910185  RH  097%=      5-min Rain = 0
KPD4 261036Z 18011KT 19/19 A2996 RMK A01 T01910185  RH  097%=      5-min Rain = 0
KPD4 261037Z 18013KT 19/19 A2996 RMK A01 T01910185  RH  097%=      5-min Rain = 0
KPD4 261038Z 18012KT 19/19 A2996 RMK A01 T01910185  RH  097%=      5-min Rain = 0
KPD4 261039Z 18011KT 19/19 A2996 RMK A01 T01910185  RH  097%=      5-min Rain = 0
KPD4 261040Z 18011KT 19/19 A2996 RMK A01 T01910185  RH  097%=      5-min Rain = 0
KPD4 261041Z 18013KT 19/19 A2996 RMK A01 T01910185  RH  097%=      5-min Rain = 0
KPD4 261042Z 18012KT 19/19 A2996 RMK A01 T01910186  RH  097%=      5-min Rain = 0
KPD4 261043Z 18013KT 19/19 A2996 RMK A01 T01910185  RH  097%=      5-min Rain = 0
KPD4 261044Z 18013KT 19/19 A2996 RMK A01 T01910186  RH  097%=      5-min Rain = 0
KPD4 261045Z 18012KT 19/19 A2996 RMK A01 T01910186  RH  097%=      5-min Rain = 0
KPD4 261046Z 18013KT 19/19 A2996 RMK A01 T01910185  RH  096%=      5-min Rain = 0
KPD4 261047Z 17014KT 19/19 A2996 RMK A01 T01910186  RH  096%=      5-min Rain = 0
KPD4 261048Z 18011KT 19/19 A2996 RMK A01 T01920186  RH  096%=      5-min Rain = 0
KPD4 261049Z 18012KT 19/19 A2996 RMK A01 T01920186  RH  096%=      5-min Rain = 0
KPD4 261050Z 18011KT 19/19 A2996 RMK A01 T01920186  RH  096%=      5-min Rain = 0
KPD4 261051Z 18009KT 19/19 A2996 RMK A01 T01920186  RH  096%=      5-min Rain = 0
KPD4 261052Z 18010KT 19/19 A2996 RMK A01 T01920186  RH  096%=      5-min Rain = 0
KPD4 261053Z 18011KT 19/19 A2996 RMK A01 T01920186  RH  096%=      5-min Rain = 0
KPD4 261054Z 18011KT 19/19 A2996 RMK A01 T01920186  RH  096%=      5-min Rain = 0
KPD4 261055Z 18010KT 19/19 A2996 RMK A01 T01920186  RH  096%=      5-min Rain = 0
KPD4 261056Z 18009KT 19/19 A2996 RMK A01 T01920186  RH  096%=      5-min Rain = 0
KPD4 261057Z 18011KT 19/19 A2996 RMK A01 T01920186  RH  096%=      5-min Rain = 0
KPD4 261058Z 18010KT 19/19 A2996 RMK A01 T01920186  RH  096%=      5-min Rain = 0
KPD4 261059Z 18011KT 19/19 A2996 RMK A01 T01920186  RH  096%=      5-min Rain = 0
KPD4 261100Z 18011KT 19/19 A2996 RMK A01 T01920186  RH  096%=      5-min Rain = 0
KPD4 261101Z 18011KT 19/19 A2997 RMK A01 T01920186  RH  096%=      5-min Rain = 0
KPD4 261102Z 17010KT 19/19 A2997 RMK A01 T01920186  RH  096%=      5-min Rain = 0
KPD4 261103Z 18011KT 19/19 A2997 RMK A01 T01920187  RH  096%=      5-min Rain = 0
KPD4 261104Z 18011KT 19/19 A2997 RMK A01 T01920186  RH  096%=      5-min Rain = 0
KPD4 261105Z 18011KT 19/19 A2997 RMK A01 T01920186  RH  096%=      5-min Rain = 0
KPD4 261106Z 18013KT 19/19 A2996 RMK A01 T01920186  RH  096%=      5-min Rain = 0
KPD4 261107Z 18010KT 19/19 A2996 RMK A01 T01930186  RH  096%=      5-min Rain = 0
KPD4 261108Z 18011KT 19/19 A2997 RMK A01 T01930186  RH  096%=      5-min Rain = 0
KPD4 261109Z 17011KT 19/19 A2997 RMK A01 T01930187  RH  096%=      5-min Rain = 0
KPD4 261110Z 18011KT 19/19 A2997 RMK A01 T01930187  RH  096%=      5-min Rain = 0
KPD4 261111Z 18012KT 19/19 A2997 RMK A01 T01930186  RH  096%=      5-min Rain = 0
KPD4 261112Z 18011KT 19/19 A2997 RMK A01 T01920186  RH  096%=      5-min Rain = 0
KPD4 261113Z 18011KT 19/19 A2997 RMK A01 T01920186  RH  096%=      5-min Rain = 0
KPD4 261114Z 18009KT 19/19 A2997 RMK A01 T01930186  RH  096%=      5-min Rain = 0
KPD4 261115Z 18012KT 19/19 A2997 RMK A01 T01930186  RH  096%=      5-min Rain = 0
KPD4 261116Z 18010KT 19/19 A2997 RMK A01 T01930186  RH  096%=      5-min Rain = 0
KPD4 261117Z 18009KT 19/19 A2997 RMK A01 T01930186  RH  096%=      5-min Rain = 0
KPD4 261118Z 18010KT 19/19 A2997 RMK A01 T01930186  RH  096%=      5-min Rain = 0
KPD4 261119Z 18011KT 19/19 A2997 RMK A01 T01930186  RH  096%=      5-min Rain = 0
KPD4 261120Z 18011KT 19/19 A2997 RMK A01 T01930186  RH  096%=      5-min Rain = 0
KPD4 261121Z 18012KT 19/19 A2997 RMK A01 T01930186  RH  096%=      5-min Rain = 0
KPD4 261122Z 18011KT 19/19 A2997 RMK A01 T01930186  RH  096%=      5-min Rain = 0
KPD4 261123Z 18010KT 19/19 A2997 RMK A01 T01930186  RH  096%=      5-min Rain = 0
KPD4 261124Z 18011KT 19/19 A2997 RMK A01 T01930186  RH  096%=      5-min Rain = 0
KPD4 261125Z 18012KT 19/19 A2997 RMK A01 T01930186  RH  096%=      5-min Rain = 0
KPD4 261126Z 18011KT 19/19 A2998 RMK A01 T01930186  RH  096%=      5-min Rain = 0
KPD4 261127Z 18010KT 19/19 A2998 RMK A01 T01930186  RH  096%=      5-min Rain = 0
KPD4 261128Z 18009KT 19/19 A2998 RMK A01 T01930186  RH  096%=      5-min Rain = 0
KPD4 261129Z 18011KT 19/19 A2998 RMK A01 T01930186  RH  096%=      5-min Rain = 0
KPD4 261130Z 18012KT 19/19 A2998 RMK A01 T01930186  RH  096%=      5-min Rain = 0
KPD4 261131Z 18011KT 19/19 A2998 RMK A01 T01930186  RH  096%=      5-min Rain = 0
KPD4 261132Z 18010KT 19/19 A2998 RMK A01 T01930186  RH  096%=      5-min Rain = 0
KPD4 261133Z 18010KT 19/19 A2998 RMK A01 T01930186  RH  096%=      5-min Rain = 0
KPD4 261134Z 19010KT 19/19 A2998 RMK A01 T01930186  RH  096%=      5-min Rain = 0
KPD4 261135Z 18010KT 19/19 A2998 RMK A01 T01930186  RH  096%=      5-min Rain = 0
KPD4 261136Z 19010KT 19/19 A2998 RMK A01 T01920186  RH  096%=      5-min Rain = 0
KPD4 261137Z 19012KT 19/19 A2998 RMK A01 T01920186  RH  096%=      5-min Rain = 0
KPD4 261138Z 18012KT 19/19 A2998 RMK A01 T01920186  RH  096%=      5-min Rain = 0
KPD4 261139Z 18012KT 19/19 A2998 RMK A01 T01920185  RH  096%=      5-min Rain = 0
KPD4 261140Z 18011KT 19/19 A2998 RMK A01 T01920185  RH  096%=      5-min Rain = 0
KPD4 261141Z 18011KT 19/19 A2998 RMK A01 T01920185  RH  096%=      5-min Rain = 0
KPD4 261142Z 18011KT 19/19 A2998 RMK A01 T01920186  RH  096%=      5-min Rain = 0
KPD4 261143Z 18011KT 19/19 A2998 RMK A01 T01920186  RH  096%=      5-min Rain = 0
KPD4 261144Z 18011KT 19/19 A2998 RMK A01 T01920185  RH  096%=      5-min Rain = 0
KPD4 261145Z 18010KT 19/19 A2998 RMK A01 T01920186  RH  096%=      5-min Rain = 0
KPD4 261146Z 18010KT 19/19 A2998 RMK A01 T01920186  RH  096%=      5-min Rain = 0
KPD4 261147Z 18010KT 19/19 A2998 RMK A01 T01920185  RH  096%=      5-min Rain = 0
KPD4 261148Z 18009KT 19/19 A2998 RMK A01 T01920185  RH  096%=      5-min Rain = 0
KPD4 261149Z 18009KT 19/19 A2998 RMK A01 T01920185  RH  096%=      5-min Rain = 0
KPD4 261150Z 18009KT 19/19 A2998 RMK A01 T01920185  RH  096%=      5-min Rain = 0
KPD4 261151Z 18009KT 19/19 A2998 RMK A01 T01910185  RH  096%=      5-min Rain = 0
KPD4 261152Z 17009KT 19/19 A2998 RMK A01 T01910185  RH  096%=      5-min Rain = 0
KPD4 261153Z 18009KT 19/19 A2998 RMK A01 T01910185  RH  096%=      5-min Rain = 0
KPD4 261154Z 17009KT 19/19 A2998 RMK A01 T01920185  RH  096%=      5-min Rain = 0
KPD4 261155Z 17009KT 19/19 A2998 RMK A01 T01910185  RH  096%=      5-min Rain = 0
KPD4 261156Z 17008KT 19/19 A2998 RMK A01 T01910185  RH  096%=      5-min Rain = 0
KPD4 261157Z 17009KT 19/19 A2998 RMK A01 T01910185  RH  096%=      5-min Rain = 0
KPD4 261158Z 17008KT 19/19 A2998 RMK A01 T01910185  RH  096%=      5-min Rain = 0
KPD4 261159Z 17008KT 19/19 A2998 RMK A01 T01910185  RH  096%=      5-min Rain = 0
KPD4 261200Z 17009KT 19/19 A2998 RMK A01 T01910185  RH  096%=      5-min Rain = 0
KPD4 261201Z 18008KT 19/19 A2998 RMK A01 T01910185  RH  096%=      5-min Rain = 0
KPD4 261202Z 17009KT 19/19 A2998 RMK A01 T01910185  RH  096%=      5-min Rain = 0
KPD4 261203Z 17008KT 19/19 A2998 RMK A01 T01910185  RH  096%=      5-min Rain = 0
KPD4 261204Z 17009KT 19/19 A2998 RMK A01 T01910185  RH  096%=      5-min Rain = 0
KPD4 261205Z 17010KT 19/19 A2998 RMK A01 T01910185  RH  096%=      5-min Rain = 0
KPD4 261206Z 17010KT 19/19 A2998 RMK A01 T01910185  RH  096%=      5-min Rain = 0
KPD4 261207Z 17009KT 19/19 A2998 RMK A01 T01910185  RH  096%=      5-min Rain = 0
KPD4 261208Z 17008KT 19/19 A2998 RMK A01 T01920185  RH  096%=      5-min Rain = 0
KPD4 261209Z 16009KT 19/19 A2998 RMK A01 T01920185  RH  096%=      5-min Rain = 0
KPD4 261210Z 17008KT 19/19 A2998 RMK A01 T01920186  RH  096%=      5-min Rain = 0
KPD4 261211Z 17007KT 19/19 A2999 RMK A01 T01920186  RH  096%=      5-min Rain = 0
KPD4 261212Z 17007KT 19/19 A2999 RMK A01 T01920186  RH  096%=      5-min Rain = 0
KPD4 261213Z 17008KT 19/19 A2999 RMK A01 T01920186  RH  096%=      5-min Rain = 0
KPD4 261214Z 16009KT 19/19 A2999 RMK A01 T01920186  RH  096%=      5-min Rain = 0
KPD4 261215Z 16010KT 19/19 A2999 RMK A01 T01920186  RH  096%=      5-min Rain = 0
KPD4 261216Z 17009KT 19/19 A2999 RMK A01 T01920186  RH  096%=      5-min Rain = 0
KPD4 261217Z 16008KT 19/19 A2999 RMK A01 T01920186  RH  096%=      5-min Rain = 0
KPD4 261218Z 16009KT 19/19 A2999 RMK A01 T01920186  RH  096%=      5-min Rain = 0
KPD4 261219Z 16009KT 19/19 A2999 RMK A01 T01920185  RH  096%=      5-min Rain = 0
KPD4 261220Z 16007KT 19/19 A2999 RMK A01 T01920185  RH  096%=      5-min Rain = 0
KPD4 261221Z 16009KT 19/19 A2999 RMK A01 T01930186  RH  096%=      5-min Rain = 0
KPD4 261222Z 16008KT 19/19 A2999 RMK A01 T01930186  RH  096%=      5-min Rain = 0
KPD4 261223Z 16009KT 19/19 A2999 RMK A01 T01930186  RH  096%=      5-min Rain = 0
KPD4 261224Z 16010KT 19/19 A2999 RMK A01 T01920186  RH  096%=      5-min Rain = 0
KPD4 261225Z 16009KT 19/19 A2999 RMK A01 T01930186  RH  096%=      5-min Rain = 0
KPD4 261226Z 16008KT 19/19 A2999 RMK A01 T01930186  RH  096%=      5-min Rain = 0
KPD4 261227Z 16008KT 19/19 A2999 RMK A01 T01930186  RH  096%=      5-min Rain = 0
KPD4 261228Z 16009KT 19/19 A2999 RMK A01 T01930186  RH  096%=      5-min Rain = 0
KPD4 261229Z 16010KT 19/19 A2999 RMK A01 T01930186  RH  095%=      5-min Rain = 0
KPD4 261230Z 16010KT 19/19 A2999 RMK A01 T01930186  RH  095%=      5-min Rain = 0
KPD4 261231Z 16010KT 19/19 A2999 RMK A01 T01940186  RH  095%=      5-min Rain = 0
KPD4 261232Z 17010KT 19/19 A2999 RMK A01 T01940186  RH  095%=      5-min Rain = 0
KPD4 261233Z 17010KT 20/19 A2999 RMK A01 T01950187  RH  095%=      5-min Rain = 0
KPD4 261234Z 17010KT 20/19 A2999 RMK A01 T01960187  RH  095%=      5-min Rain = 0
KPD4 261235Z 17010KT 20/19 A2999 RMK A01 T01960187  RH  095%=      5-min Rain = 0
KPD4 261236Z 17011KT 20/19 A2999 RMK A01 T01970187  RH  094%=      5-min Rain = 0
KPD4 261237Z 17010KT 20/19 A2999 RMK A01 T01970188  RH  094%=      5-min Rain = 0
KPD4 261238Z 18011KT 20/19 A2999 RMK A01 T01980188  RH  094%=      5-min Rain = 0
KPD4 261239Z 18010KT 20/19 A2999 RMK A01 T01980187  RH  093%=      5-min Rain = 0
KPD4 261240Z 16010KT 20/19 A2999 RMK A01 T01990188  RH  094%=      5-min Rain = 0
KPD4 261241Z 17013KT 20/19 A2999 RMK A01 T01980188  RH  094%=      5-min Rain = 0
KPD4 261242Z 17010KT 20/19 A2999 RMK A01 T01990187  RH  093%=      5-min Rain = 0
KPD4 261243Z 17011KT 20/19 A2999 RMK A01 T01990188  RH  093%=      5-min Rain = 0
KPD4 261244Z 17011KT 20/19 A30 RMK A01 T01990188  RH  093%=      5-min Rain = 0
KPD4 261245Z 17011KT 20/19 A30 RMK A01 T01990187  RH  093%=      5-min Rain = 0
KPD4 261246Z 17008KT 20/19 A30 RMK A01 T01990188  RH  093%=      5-min Rain = 0
KPD4 261247Z 18008KT 20/19 A2999 RMK A01 T01980188  RH  094%=      5-min Rain = 0
KPD4 261248Z 17011KT 20/19 A2999 RMK A01 T01990188  RH  093%=      5-min Rain = 0
KPD4 261249Z 17010KT 20/19 A2999 RMK A01 T01990188  RH  093%=      5-min Rain = 0
KPD4 261250Z 17012KT 20/19 A2999 RMK A01 T02000188  RH  093%=      5-min Rain = 0
KPD4 261251Z 18010KT 20/19 A2999 RMK A01 T02010188  RH  092%=      5-min Rain = 0
KPD4 261252Z 17009KT 20/19 A2999 RMK A01 T02010189  RH  093%=      5-min Rain = 0
KPD4 261253Z 17013KT 20/19 A2999 RMK A01 T02020189  RH  092%=      5-min Rain = 0
KPD4 261254Z 16010KT 20/19 A2999 RMK A01 T02020189  RH  092%=      5-min Rain = 0
KPD4 261255Z 16013KT 20/19 A2999 RMK A01 T02020189  RH  092%=      5-min Rain = 0
KPD4 261256Z 16013KT 20/19 A2999 RMK A01 T02020189  RH  092%=      5-min Rain = 0
KPD4 261257Z 17013KT 20/19 A2999 RMK A01 T02020188  RH  092%=      5-min Rain = 0
KPD4 261258Z 17011KT 20/19 A2999 RMK A01 T02020188  RH  092%=      5-min Rain = 0
KPD4 261259Z 17010KT 20/19 A2999 RMK A01 T02020189  RH  092%=      5-min Rain = 0
KPD4 261300Z 16010KT 20/19 A2999 RMK A01 T02020189  RH  092%=      5-min Rain = 0
KPD4 261301Z 16012KT 20/19 A2999 RMK A01 T02030189  RH  092%=      5-min Rain = 0
KPD4 261302Z 16012KT 20/19 A2999 RMK A01 T02030189  RH  091%=      5-min Rain = 0
KPD4 261303Z 16009G14KT 20/19 A2999 RMK A01 T02030188  RH  091%=      5-min Rain = 0
KPD4 261304Z 16013KT 20/19 A2999 RMK A01 T02030189  RH  092%=      5-min Rain = 0
KPD4 261305Z 15015KT 20/19 A2999 RMK A01 T02040189  RH  091%=      5-min Rain = 0
KPD4 261306Z 16015KT 20/19 A2999 RMK A01 T02040189  RH  091%=      5-min Rain = 0
KPD4 261307Z 16014KT 20/19 A2999 RMK A01 T02030188  RH  091%=      5-min Rain = 0
KPD4 261308Z 17013KT 20/19 A2999 RMK A01 T02030188  RH  091%=      5-min Rain = 0
KPD4 261309Z 15011KT 20/19 A2999 RMK A01 T02030189  RH  091%=      5-min Rain = 0
KPD4 261310Z 16014KT 20/19 A2999 RMK A01 T02040189  RH  091%=      5-min Rain = 0
KPD4 261311Z 17011KT 20/19 A2999 RMK A01 T02040189  RH  091%=      5-min Rain = 0
KPD4 261312Z 17013KT 20/19 A2999 RMK A01 T02040188  RH  091%=      5-min Rain = 0
KPD4 261313Z 17010KT 21/19 A2999 RMK A01 T02050189  RH  090%=      5-min Rain = 0
KPD4 261314Z 16009KT 21/19 A2999 RMK A01 T02060190  RH  091%=      5-min Rain = 0
KPD4 261315Z 16010KT 21/19 A2999 RMK A01 T02070191  RH  090%=      5-min Rain = 0
KPD4 261316Z 16011KT 21/19 A2999 RMK A01 T02080191  RH  090%=      5-min Rain = 0
KPD4 261317Z 18013KT 21/19 A2999 RMK A01 T02090190  RH  089%=      5-min Rain = 0
KPD4 261318Z 17012KT 21/19 A2999 RMK A01 T02090189  RH  089%=      5-min Rain = 0
KPD4 261319Z 17011KT 21/19 A2999 RMK A01 T02090190  RH  089%=      5-min Rain = 0
KPD4 261320Z 17012KT 21/19 A2999 RMK A01 T02090190  RH  089%=      5-min Rain = 0
KPD4 261321Z 17012KT 21/19 A2999 RMK A01 T02100190  RH  088%=      5-min Rain = 0
KPD4 261322Z 17013KT 21/19 A2999 RMK A01 T02100190  RH  088%=      5-min Rain = 0
KPD4 261323Z 16011KT 21/19 A2999 RMK A01 T02100190  RH  088%=      5-min Rain = 0
KPD4 261324Z 17013KT 21/19 A2999 RMK A01 T02110190  RH  088%=      5-min Rain = 0
KPD4 261325Z 16012KT 21/19 A2999 RMK A01 T02110191  RH  088%=      5-min Rain = 0
KPD4 261326Z 16011KT 21/19 A2999 RMK A01 T02110192  RH  089%=      5-min Rain = 0
KPD4 261327Z 16012KT 21/19 A2999 RMK A01 T02120191  RH  088%=      5-min Rain = 0
KPD4 261328Z 17013KT 21/19 A2999 RMK A01 T02120192  RH  088%=      5-min Rain = 0
KPD4 261329Z 16010KT 21/19 A2999 RMK A01 T02120192  RH  088%=      5-min Rain = 0
KPD4 261330Z 15012KT 21/19 A2999 RMK A01 T02120192  RH  089%=      5-min Rain = 0
KPD4 261331Z 15012KT 21/19 A2999 RMK A01 T02120191  RH  088%=      5-min Rain = 0
KPD4 261332Z 15011G16KT 21/19 A2999 RMK A01 T02110192  RH  089%=      5-min Rain = 0
KPD4 261333Z 16012KT 21/19 A2999 RMK A01 T02120191  RH  088%=      5-min Rain = 0
KPD4 261334Z 16012KT 21/19 A2999 RMK A01 T02110192  RH  089%=      5-min Rain = 0
KPD4 261335Z 16012KT 21/19 A2999 RMK A01 T02120192  RH  088%=      5-min Rain = 0
KPD4 261336Z 16014KT 21/19 A2999 RMK A01 T02130192  RH  088%=      5-min Rain = 0
KPD4 261337Z 16013KT 21/19 A2999 RMK A01 T02130192  RH  088%=      5-min Rain = 0
KPD4 261338Z 17012KT 21/19 A2999 RMK A01 T02120192  RH  088%=      5-min Rain = 0
KPD4 261339Z 16012KT 21/19 A2999 RMK A01 T02120192  RH  089%=      5-min Rain = 0
KPD4 261340Z 16014KT 21/19 A2999 RMK A01 T02120192  RH  088%=      5-min Rain = 0
KPD4 261341Z 16012KT 21/19 A2999 RMK A01 T02120191  RH  088%=      5-min Rain = 0
KPD4 261342Z 16012KT 21/19 A2999 RMK A01 T02120192  RH  088%=      5-min Rain = 0
KPD4 261343Z 16013KT 21/19 A2999 RMK A01 T02130193  RH  088%=      5-min Rain = 0
KPD4 261344Z 15017KT 21/19 A2999 RMK A01 T02140193  RH  088%=      5-min Rain = 0
KPD4 261345Z 16015KT 21/19 A2999 RMK A01 T02140191  RH  087%=      5-min Rain = 0
KPD4 261346Z 16016KT 21/19 A2999 RMK A01 T02130191  RH  087%=      5-min Rain = 0
KPD4 261347Z 16015KT 21/19 A2999 RMK A01 T02130191  RH  088%=      5-min Rain = 0
KPD4 261348Z 16015KT 21/19 A2999 RMK A01 T02120191  RH  088%=      5-min Rain = 0
KPD4 261349Z 16016KT 21/19 A2999 RMK A01 T02120192  RH  088%=      5-min Rain = 0
KPD4 261350Z 16017KT 21/19 A2999 RMK A01 T02130191  RH  087%=      5-min Rain = 0
KPD4 261351Z 15015KT 21/19 A2999 RMK A01 T02130191  RH  087%=      5-min Rain = 0
KPD4 261352Z 16016KT 21/19 A2999 RMK A01 T02130191  RH  087%=      5-min Rain = 0
KPD4 261353Z 16015KT 21/19 A2999 RMK A01 T02130191  RH  087%=      5-min Rain = 0
KPD4 261354Z 16015KT 21/19 A2999 RMK A01 T02120190  RH  087%=      5-min Rain = 0
KPD4 261355Z 16015KT 21/19 A2999 RMK A01 T02110191  RH  088%=      5-min Rain = 0
KPD4 261356Z 15018KT 21/19 A2999 RMK A01 T02120190  RH  088%=      5-min Rain = 0
KPD4 261357Z 16018KT 21/19 A2999 RMK A01 T02120190  RH  087%=      5-min Rain = 0
KPD4 261358Z 16014KT 21/19 A2999 RMK A01 T02120191  RH  087%=      5-min Rain = 0
KPD4 261359Z 16012KT 21/19 A2999 RMK A01 T02130192  RH  088%=      5-min Rain = 0
KPD4 261400Z 16016KT 21/19 A2999 RMK A01 T02140192  RH  087%=      5-min Rain = 0
KPD4 261401Z 16016KT 21/19 A2999 RMK A01 T02130191  RH  087%=      5-min Rain = 0
KPD4 261402Z 16015G20KT 21/19 A2999 RMK A01 T02120190  RH  087%=      5-min Rain = 0
KPD4 261403Z 16016KT 21/19 A2999 RMK A01 T02110190  RH  088%=      5-min Rain = 0
KPD4 261404Z 16016G21KT 21/19 A2999 RMK A01 T02100190  RH  088%=      5-min Rain = 0
KPD4 261405Z 16018KT 21/19 A2999 RMK A01 T02100190  RH  088%=      5-min Rain = 0
KPD4 261406Z 16017KT 21/19 A2999 RMK A01 T02100190  RH  088%=      5-min Rain = 0
KPD4 261407Z 17015KT 21/19 A2999 RMK A01 T02100191  RH  089%=      5-min Rain = 0
KPD4 261408Z 16014KT 21/19 A2999 RMK A01 T02100191  RH  089%=      5-min Rain = 0
KPD4 261409Z 16015KT 21/19 A30 RMK A01 T02090191  RH  089%=      5-min Rain = 0
KPD4 261410Z 16017KT 21/19 A30 RMK A01 T02090190  RH  089%=      5-min Rain = 0
KPD4 261411Z 17013KT 21/19 A30 RMK A01 T02090190  RH  089%=      5-min Rain = 0
KPD4 261412Z 16014KT 21/19 A30 RMK A01 T02080189  RH  089%=      5-min Rain = 0
KPD4 261413Z 17013KT 21/19 A30 RMK A01 T02080190  RH  089%=      5-min Rain = 0
KPD4 261414Z 16016KT 21/19 A2999 RMK A01 T02080189  RH  089%=      5-min Rain = 0
KPD4 261415Z 17016KT 21/19 A2999 RMK A01 T02080188  RH  089%=      5-min Rain = 0
KPD4 261416Z 17014KT 21/19 A2999 RMK A01 T02080189  RH  089%=      5-min Rain = 0
KPD4 261417Z 17016KT 21/19 A2999 RMK A01 T02080189  RH  089%=      5-min Rain = 0
KPD4 261418Z 16019KT 21/19 A2999 RMK A01 T02080189  RH  088%=      5-min Rain = 0
KPD4 261419Z 17018KT 21/19 A2999 RMK A01 T02090189  RH  088%=      5-min Rain = 0
KPD4 261420Z 17016KT 21/19 A30 RMK A01 T02090189  RH  088%=      5-min Rain = 0
KPD4 261421Z 17015KT 21/19 A30 RMK A01 T02090190  RH  089%=      5-min Rain = 0
KPD4 261422Z 18016KT 21/19 A30 RMK A01 T02090189  RH  089%=      5-min Rain = 0
KPD4 261423Z 17017KT 21/19 A30 RMK A01 T02090189  RH  088%=      5-min Rain = 0
KPD4 261424Z 17016KT 21/19 A30 RMK A01 T02090189  RH  088%=      5-min Rain = 0
KPD4 261425Z 16016KT 21/19 A30 RMK A01 T02090190  RH  089%=      5-min Rain = 0
KPD4 261426Z 17012KT 21/19 A30 RMK A01 T02090190  RH  089%=      5-min Rain = 0
KPD4 261427Z 17013KT 21/19 A30 RMK A01 T02090191  RH  089%=      5-min Rain = 0
KPD4 261428Z 17014KT 21/19 A30 RMK A01 T02090191  RH  089%=      5-min Rain = 0
KPD4 261429Z 17013KT 21/19 A30 RMK A01 T02100191  RH  089%=      5-min Rain = 0
KPD4 261430Z 17015G20KT 21/19 A30 RMK A01 T02090190  RH  089%=      5-min Rain = 0
KPD4 261431Z 16017KT 21/19 A30 RMK A01 T02100190  RH  088%=      5-min Rain = 0
KPD4 261432Z 16016KT 21/19 A30 RMK A01 T02100190  RH  088%=      5-min Rain = 0
KPD4 261433Z 16016KT 21/19 A30 RMK A01 T02100190  RH  088%=      5-min Rain = 0
KPD4 261434Z 16015KT 21/19 A30 RMK A01 T02100190  RH  089%=      5-min Rain = 0
KPD4 261435Z 16017KT 21/19 A30 RMK A01 T02100191  RH  088%=      5-min Rain = 0
KPD4 261436Z 16017KT 21/19 A30 RMK A01 T02100191  RH  088%=      5-min Rain = 0
KPD4 261437Z 16014KT 21/19 A30 RMK A01 T02100191  RH  088%=      5-min Rain = 0
KPD4 261438Z 17014KT 21/19 A30 RMK A01 T02110191  RH  089%=      5-min Rain = 0
KPD4 261439Z 17017KT 21/19 A30 RMK A01 T02120192  RH  088%=      5-min Rain = 0
KPD4 261440Z 16017KT 21/19 A30 RMK A01 T02120191  RH  088%=      5-min Rain = 0
KPD4 261441Z 16017KT 21/19 A30 RMK A01 T02120191  RH  087%=      5-min Rain = 0
KPD4 261442Z 17018KT 21/19 A30 RMK A01 T02130191  RH  087%=      5-min Rain = 0
KPD4 261443Z 16015KT 21/19 A30 RMK A01 T02140191  RH  087%=      5-min Rain = 0
KPD4 261444Z 16015KT 21/19 A30 RMK A01 T02140192  RH  087%=      5-min Rain = 0
KPD4 261445Z 16014KT 21/19 A30 RMK A01 T02140192  RH  087%=      5-min Rain = 0
KPD4 261446Z 17016KT 22/19 A30 RMK A01 T02150192  RH  087%=      5-min Rain = 0
KPD4 261447Z 17016KT 22/19 A30 RMK A01 T02150191  RH  087%=      5-min Rain = 0
KPD4 261448Z 17017KT 22/19 A30 RMK A01 T02150192  RH  087%=      5-min Rain = 0
KPD4 261449Z 17015KT 21/19 A30 RMK A01 T02140192  RH  087%=      5-min Rain = 0
KPD4 261450Z 17015KT 21/19 A30 RMK A01 T02140192  RH  088%=      5-min Rain = 0
KPD4 261451Z 16015KT 21/19 A30 RMK A01 T02140192  RH  088%=      5-min Rain = 0
KPD4 261452Z 16016KT 21/19 A30 RMK A01 T02140192  RH  087%=      5-min Rain = 0
KPD4 261453Z 17017KT 21/19 A30 RMK A01 T02140192  RH  087%=      5-min Rain = 0
KPD4 261454Z 17015KT 22/19 A30 RMK A01 T02150192  RH  087%=      5-min Rain = 0
KPD4 261455Z 17013G18KT 22/19 A30 RMK A01 T02160194  RH  087%=      5-min Rain = 0
KPD4 261456Z 17015KT 22/20 A30 RMK A01 T02180195  RH  086%=      5-min Rain = 0
KPD4 261457Z 17015KT 22/19 A30 RMK A01 T02200194  RH  085%=      5-min Rain = 0
KPD4 261458Z 17015KT 22/20 A30 RMK A01 T02210195  RH  085%=      5-min Rain = 0
KPD4 261459Z 17014KT 22/20 A30 RMK A01 T02220195  RH  085%=      5-min Rain = 0
KPD4 261500Z 16014KT 22/20 A30 RMK A01 T02220195  RH  084%=      5-min Rain = 0
KPD4 261501Z 18017KT 22/20 A30 RMK A01 T02230195  RH  084%=      5-min Rain = 0
KPD4 261502Z 18018KT 22/19 A30 RMK A01 T02230193  RH  083%=      5-min Rain = 0
KPD4 261503Z 17017KT 22/19 A30 RMK A01 T02220193  RH  084%=      5-min Rain = 0
KPD4 261504Z 17018G24KT 22/19 A30 RMK A01 T02220194  RH  084%=      5-min Rain = 0
KPD4 261505Z 17019KT 22/19 A30 RMK A01 T02220193  RH  083%=      5-min Rain = 0
KPD4 261506Z 16018KT 22/19 A30 RMK A01 T02220192  RH  083%=      5-min Rain = 0
KPD4 261507Z 17020KT 22/19 A30 RMK A01 T02220192  RH  083%=      5-min Rain = 0
KPD4 261508Z 17017KT 22/19 A30 RMK A01 T02220193  RH  083%=      5-min Rain = 0
KPD4 261509Z 17017KT 22/19 A30 RMK A01 T02220194  RH  084%=      5-min Rain = 0
KPD4 261510Z 17017KT 22/19 A30 RMK A01 T02230193  RH  083%=      5-min Rain = 0
KPD4 261511Z 17016KT 22/19 A30 RMK A01 T02230194  RH  084%=      5-min Rain = 0
KPD4 261512Z 17017G22KT 22/20 A30 RMK A01 T02240195  RH  083%=      5-min Rain = 0
KPD4 261513Z 17017KT 23/19 A30 RMK A01 T02250193  RH  082%=      5-min Rain = 0
KPD4 261514Z 17018KT 22/19 A30 RMK A01 T02240194  RH  083%=      5-min Rain = 0
KPD4 261515Z 17019KT 22/19 A30 RMK A01 T02240193  RH  082%=      5-min Rain = 0
KPD4 261516Z 17018KT 22/19 A30 RMK A01 T02230192  RH  083%=      5-min Rain = 0
KPD4 261517Z 17018KT 22/19 A30 RMK A01 T02230192  RH  083%=      5-min Rain = 0
KPD4 261518Z 17015KT 22/19 A30 RMK A01 T02230194  RH  083%=      5-min Rain = 0
KPD4 261519Z 17015KT 22/19 A30 RMK A01 T02240194  RH  083%=      5-min Rain = 0
KPD4 261520Z 16017KT 23/20 A30 RMK A01 T02250195  RH  083%=      5-min Rain = 0
KPD4 261521Z 17018KT 23/19 A30 RMK A01 T02250194  RH  082%=      5-min Rain = 0
KPD4 261522Z 17016KT 23/19 A30 RMK A01 T02250192  RH  081%=      5-min Rain = 0
KPD4 261523Z 18019KT 23/19 A30 RMK A01 T02250192  RH  081%=      5-min Rain = 0
KPD4 261524Z 17018KT 23/19 A30 RMK A01 T02250191  RH  081%=      5-min Rain = 0
KPD4 261525Z 17014G19KT 23/19 A30 RMK A01 T02250192  RH  082%=      5-min Rain = 0
KPD4 261526Z 18015KT 23/19 A30 RMK A01 T02260194  RH  082%=      5-min Rain = 0
KPD4 261527Z 18014KT 23/20 A30 RMK A01 T02290196  RH  082%=      5-min Rain = 0
KPD4 261528Z 17020KT 23/20 A30 RMK A01 T02310195  RH  080%=      5-min Rain = 0
KPD4 261529Z 17020KT 23/19 A30 RMK A01 T02300193  RH  079%=      5-min Rain = 0
KPD4 261530Z 16018KT 23/19 A30 RMK A01 T02290193  RH  080%=      5-min Rain = 0
KPD4 261531Z 17018KT 23/19 A30 RMK A01 T02290193  RH  080%=      5-min Rain = 0
KPD4 261532Z 18018KT 23/19 A30 RMK A01 T02290193  RH  080%=      5-min Rain = 0
KPD4 261533Z 17019KT 23/19 A30 RMK A01 T02280193  RH  080%=      5-min Rain = 0
KPD4 261534Z 17018KT 23/19 A30 RMK A01 T02280192  RH  080%=      5-min Rain = 0
KPD4 261535Z 17019KT 23/19 A30 RMK A01 T02280192  RH  080%=      5-min Rain = 0
KPD4 261536Z 17019KT 23/19 A30 RMK A01 T02290194  RH  081%=      5-min Rain = 0
KPD4 261537Z 17018KT 23/19 A30 RMK A01 T02290192  RH  080%=      5-min Rain = 0
KPD4 261538Z 16020KT 23/19 A30 RMK A01 T02300193  RH  079%=      5-min Rain = 0
KPD4 261539Z 17017KT 23/19 A30 RMK A01 T02310193  RH  079%=      5-min Rain = 0
KPD4 261540Z 16020KT 23/19 A30 RMK A01 T02310193  RH  079%=      5-min Rain = 0
KPD4 261541Z 17019KT 23/19 A30 RMK A01 T02290192  RH  079%=      5-min Rain = 0
KPD4 261542Z 17016KT 23/20 A30 RMK A01 T02290195  RH  081%=      5-min Rain = 0
KPD4 261543Z 16017KT 23/19 A30 RMK A01 T02300194  RH  080%=      5-min Rain = 0
KPD4 261544Z 17020KT 23/19 A30 RMK A01 T02310193  RH  079%=      5-min Rain = 0
KPD4 261545Z 17019KT 23/19 A30 RMK A01 T02310190  RH  078%=      5-min Rain = 0
KPD4 261546Z 17017KT 23/19 A30 RMK A01 T02310193  RH  079%=      5-min Rain = 0
KPD4 261547Z 16016KT 23/19 A30 RMK A01 T02310194  RH  080%=      5-min Rain = 0
KPD4 261548Z 16017KT 23/19 A30 RMK A01 T02310194  RH  079%=      5-min Rain = 0
KPD4 261549Z 16018KT 23/19 A30 RMK A01 T02310193  RH  079%=      5-min Rain = 0
KPD4 261550Z 17019G24KT 23/19 A30 RMK A01 T02310193  RH  079%=      5-min Rain = 0
KPD4 261551Z 18019KT 23/19 A30 RMK A01 T02330193  RH  078%=      5-min Rain = 0
KPD4 261552Z 18020KT 23/19 A30 RMK A01 T02330193  RH  078%=      5-min Rain = 0
KPD4 261553Z 17017KT 23/19 A30 RMK A01 T02340194  RH  078%=      5-min Rain = 0
KPD4 261554Z 17019KT 24/20 A30 RMK A01 T02350195  RH  078%=      5-min Rain = 0
KPD4 261555Z 17019KT 23/20 A30 RMK A01 T02340195  RH  078%=      5-min Rain = 0
KPD4 261556Z 17018KT 23/20 A30 RMK A01 T02340195  RH  079%=      5-min Rain = 0
KPD4 261557Z 16018KT 24/20 A30 RMK A01 T02350195  RH  078%=      5-min Rain = 0
KPD4 261558Z 16017KT 24/20 A30 RMK A01 T02350195  RH  078%=      5-min Rain = 0
KPD4 261559Z 16019KT 24/19 A30 RMK A01 T02360194  RH  078%=      5-min Rain = 0
KPD4 261600Z 16017KT 23/20 A30 RMK A01 T02330195  RH  079%=      5-min Rain = 0
KPD4 261601Z 17018KT 23/20 A2999 RMK A01 T02340195  RH  079%=      5-min Rain = 0
KPD4 261602Z 18018G23KT 24/20 A2999 RMK A01 T02380197  RH  078%=      5-min Rain = 0
KPD4 261603Z 18018KT 24/19 A2999 RMK A01 T02390192  RH  075%=      5-min Rain = 0
KPD4 261604Z 18014KT 24/19 A2999 RMK A01 T02370194  RH  077%=      5-min Rain = 0
KPD4 261605Z 16013KT 24/20 A2999 RMK A01 T02370198  RH  079%=      5-min Rain = 0
KPD4 261606Z 16017KT 24/20 A2999 RMK A01 T02390198  RH  078%=      5-min Rain = 0
KPD4 261607Z 15018KT 24/20 A2999 RMK A01 T02390197  RH  077%=      5-min Rain = 0
KPD4 261608Z 16018KT 24/20 A2999 RMK A01 T02370195  RH  077%=      5-min Rain = 0
KPD4 261609Z 16015KT 23/19 A2999 RMK A01 T02340194  RH  078%=      5-min Rain = 0
KPD4 261610Z 16016KT 23/20 A2999 RMK A01 T02330196  RH  080%=      5-min Rain = 0
KPD4 261611Z 16015KT 23/20 A2999 RMK A01 T02330195  RH  079%=      5-min Rain = 0
KPD4 261612Z 16016KT 23/19 A2999 RMK A01 T02320193  RH  079%=      5-min Rain = 0
KPD4 261613Z 16015KT 23/19 A2999 RMK A01 T02320194  RH  079%=      5-min Rain = 0
KPD4 261614Z 18016KT 23/19 A2999 RMK A01 T02320194  RH  079%=      5-min Rain = 0
KPD4 261615Z 18015KT 23/19 A2999 RMK A01 T02320193  RH  079%=      5-min Rain = 0
KPD4 261616Z 17013KT 23/19 A30 RMK A01 T02320194  RH  079%=      5-min Rain = 0
KPD4 261617Z 17015KT 23/20 A30 RMK A01 T02330196  RH  080%=      5-min Rain = 0
KPD4 261618Z 17015KT 23/20 A30 RMK A01 T02330195  RH  079%=      5-min Rain = 0
KPD4 261619Z 17017KT 23/20 A30 RMK A01 T02330197  RH  080%=      5-min Rain = 0
KPD4 261620Z 16016KT 23/19 A30 RMK A01 T02320194  RH  079%=      5-min Rain = 0
KPD4 261621Z 16017KT 23/19 A30 RMK A01 T02310194  RH  080%=      5-min Rain = 0
KPD4 261622Z 16017KT 23/19 A30 RMK A01 T02300194  RH  080%=      5-min Rain = 0
KPD4 261623Z 17018G23KT 23/19 A30 RMK A01 T02290193  RH  080%=      5-min Rain = 0
KPD4 261624Z 17019KT 23/19 A30 RMK A01 T02290192  RH  080%=      5-min Rain = 0
KPD4 261625Z 17018KT 23/19 A30 RMK A01 T02280193  RH  080%=      5-min Rain = 0
KPD4 261626Z 17015KT 23/19 A30 RMK A01 T02280194  RH  081%=      5-min Rain = 0
KPD4 261627Z 16017KT 23/19 A2999 RMK A01 T02290194  RH  080%=      5-min Rain = 0
KPD4 261628Z 17018KT 23/19 A2999 RMK A01 T02300194  RH  080%=      5-min Rain = 0
KPD4 261629Z 17019G24KT 23/19 A2999 RMK A01 T02310193  RH  079%=      5-min Rain = 0
KPD4 261630Z 17019KT 23/19 A2999 RMK A01 T02310194  RH  080%=      5-min Rain = 0
KPD4 261631Z 17019KT 23/19 A2999 RMK A01 T02320193  RH  079%=      5-min Rain = 0
KPD4 261632Z 17020KT 23/19 A2999 RMK A01 T02330194  RH  079%=      5-min Rain = 0
KPD4 261633Z 17017KT 23/20 A2999 RMK A01 T02340195  RH  079%=      5-min Rain = 0
KPD4 261634Z 17017KT 24/20 A2999 RMK A01 T02380197  RH  078%=      5-min Rain = 0
KPD4 261635Z 16018KT 24/20 A2999 RMK A01 T02400199  RH  078%=      5-min Rain = 0
KPD4 261636Z 16020KT 24/20 A2999 RMK A01 T02410195  RH  075%=      5-min Rain = 0
KPD4 261637Z 16021KT 24/19 A2999 RMK A01 T02380194  RH  076%=      5-min Rain = 0
KPD4 261638Z 16019KT 24/19 A2999 RMK A01 T02370192  RH  076%=      5-min Rain = 0
KPD4 261639Z 16019G24KT 24/19 A2999 RMK A01 T02370193  RH  077%=      5-min Rain = 0
KPD4 261640Z 16020KT 24/19 A2999 RMK A01 T02390193  RH  076%=      5-min Rain = 0
KPD4 261641Z 17017KT 24/20 A2999 RMK A01 T02410197  RH  077%=      5-min Rain = 0
KPD4 261642Z 17019KT 24/20 A2999 RMK A01 T02430198  RH  076%=      5-min Rain = 0
KPD4 261643Z 16017G22KT 24/20 A2999 RMK A01 T02440198  RH  076%=      5-min Rain = 0
KPD4 261644Z 16016KT 25/20 A2999 RMK A01 T02450199  RH  076%=      5-min Rain = 0
KPD4 261645Z 17020KT 25/20 A2999 RMK A01 T02470198  RH  074%=      5-min Rain = 0
KPD4 261646Z 17021KT 25/19 A2998 RMK A01 T02450193  RH  073%=      5-min Rain = 0
KPD4 261647Z 16018KT 24/19 A2998 RMK A01 T02410191  RH  074%=      5-min Rain = 0
KPD4 261648Z 15019KT 24/20 A2998 RMK A01 T02400196  RH  076%=      5-min Rain = 0
KPD4 261649Z 15019KT 24/20 A2998 RMK A01 T02390195  RH  076%=      5-min Rain = 0
KPD4 261650Z 16016KT 24/20 A2998 RMK A01 T02380198  RH  078%=      5-min Rain = 0
KPD4 261651Z 17018KT 24/20 A2999 RMK A01 T02400196  RH  076%=      5-min Rain = 0
KPD4 261652Z 17016KT 24/20 A2998 RMK A01 T02410195  RH  075%=      5-min Rain = 0
KPD4 261653Z 17019KT 24/20 A2998 RMK A01 T02430198  RH  076%=      5-min Rain = 0
KPD4 261654Z 17018G23KT 24/20 A2998 RMK A01 T02430196  RH  075%=      5-min Rain = 0
KPD4 261655Z 17017KT 24/20 A2998 RMK A01 T02410196  RH  076%=      5-min Rain = 0
KPD4 261656Z 17017KT 24/20 A2998 RMK A01 T02390197  RH  077%=      5-min Rain = 0
KPD4 261657Z 16014G19KT 24/20 A2998 RMK A01 T02380197  RH  078%=      5-min Rain = 0
KPD4 261658Z 16014G19KT 24/20 A2998 RMK A01 T02390198  RH  078%=      5-min Rain = 0
KPD4 261659Z 15017G22KT 24/20 A2998 RMK A01 T02410198  RH  077%=      5-min Rain = 0
KPD4 261700Z 15017G22KT 24/20 A2998 RMK A01 T02420196  RH  075%=      5-min Rain = 0
KPD4 261701Z 15015KT 24/20 A2998 RMK A01 T02430198  RH  076%=      5-min Rain = 0
KPD4 261702Z 16016KT 25/20 A2998 RMK A01 T02450198  RH  075%=      5-min Rain = 0
KPD4 261703Z 15017KT 24/20 A2998 RMK A01 T02440197  RH  075%=      5-min Rain = 0
KPD4 261704Z 16016KT 24/20 A2999 RMK A01 T02430197  RH  076%=      5-min Rain = 0
KPD4 261705Z 17015KT 24/20 A2999 RMK A01 T02420198  RH  076%=      5-min Rain = 0
KPD4 261706Z 17014KT 25/20 A2999 RMK A01 T02450200  RH  076%=      5-min Rain = 0
KPD4 261707Z 16015KT 25/20 A2999 RMK A01 T02480198  RH  074%=      5-min Rain = 0
KPD4 261708Z 16015KT 25/20 A2999 RMK A01 T02500202  RH  075%=      5-min Rain = 0
KPD4 261709Z 15018KT 25/20 A2999 RMK A01 T02490197  RH  073%=      5-min Rain = 0
KPD4 261710Z 15016KT 25/20 A2998 RMK A01 T02450196  RH  074%=      5-min Rain = 0
KPD4 261711Z 15016KT 24/20 A2998 RMK A01 T02440196  RH  075%=      5-min Rain = 0
KPD4 261712Z 15014KT 24/20 A2998 RMK A01 T02440196  RH  074%=      5-min Rain = 0
KPD4 261713Z 16014G19KT 25/20 A2998 RMK A01 T02450196  RH  074%=      5-min Rain = 0
KPD4 261714Z 16015KT 25/20 A2998 RMK A01 T02450198  RH  075%=      5-min Rain = 0
KPD4 261715Z 17016G21KT 25/20 A2998 RMK A01 T02450198  RH  075%=      5-min Rain = 0
KPD4 261716Z 17017KT 24/20 A2998 RMK A01 T02440195  RH  074%=      5-min Rain = 0
KPD4 261717Z 17016KT 24/20 A2998 RMK A01 T02440195  RH  074%=      5-min Rain = 0
KPD4 261718Z 17014KT 24/20 A2999 RMK A01 T02440197  RH  075%=      5-min Rain = 0
KPD4 261719Z 15015KT 24/20 A2999 RMK A01 T02430199  RH  076%=      5-min Rain = 0
KPD4 261720Z 15016KT 24/20 A2999 RMK A01 T02430196  RH  075%=      5-min Rain = 0
KPD4 261721Z 16017KT 24/19 A2999 RMK A01 T02410194  RH  075%=      5-min Rain = 0
KPD4 261722Z 16016KT 24/19 A2999 RMK A01 T02410194  RH  075%=      5-min Rain = 0
KPD4 261723Z 15017KT 24/19 A2999 RMK A01 T02410194  RH  075%=      5-min Rain = 0
KPD4 261724Z 15018KT 24/19 A2999 RMK A01 T02410194  RH  075%=      5-min Rain = 0
KPD4 261725Z 15016KT 24/20 A2999 RMK A01 T02420196  RH  075%=      5-min Rain = 0
KPD4 261726Z 16017KT 24/20 A2999 RMK A01 T02430198  RH  076%=      5-min Rain = 0
KPD4 261727Z 16017G22KT 24/20 A2999 RMK A01 T02440195  RH  074%=      5-min Rain = 0
KPD4 261728Z 16017KT 24/20 A2999 RMK A01 T02440195  RH  074%=      5-min Rain = 0
KPD4 261729Z 16016KT 25/19 A2999 RMK A01 T02450193  RH  073%=      5-min Rain = 0
KPD4 261730Z 16018KT 24/19 A2999 RMK A01 T02440192  RH  073%=      5-min Rain = 0
KPD4 261731Z 16018KT 24/19 A2999 RMK A01 T02430192  RH  073%=      5-min Rain = 0
KPD4 261732Z 16015KT 24/19 A2999 RMK A01 T02440193  RH  073%=      5-min Rain = 0
KPD4 261733Z 16017KT 25/20 A2999 RMK A01 T02460195  RH  073%=      5-min Rain = 0
KPD4 261734Z 17019KT 25/19 A2999 RMK A01 T02460193  RH  072%=      5-min Rain = 0
KPD4 261735Z 17017KT 25/19 A2999 RMK A01 T02470193  RH  072%=      5-min Rain = 0
KPD4 261736Z 17017KT 25/20 A2999 RMK A01 T02470195  RH  072%=      5-min Rain = 0
KPD4 261737Z 17017KT 25/19 A2999 RMK A01 T02480192  RH  071%=      5-min Rain = 0
KPD4 261738Z 18017G22KT 25/20 A2999 RMK A01 T02480195  RH  072%=      5-min Rain = 0
KPD4 261739Z 16018KT 25/19 A2999 RMK A01 T02480193  RH  071%=      5-min Rain = 0
KPD4 261740Z 17018KT 25/19 A2999 RMK A01 T02480193  RH  071%=      5-min Rain = 0
KPD4 261741Z 17016KT 25/19 A2999 RMK A01 T02490193  RH  071%=      5-min Rain = 0
KPD4 261742Z 17014G19KT 25/20 A2999 RMK A01 T02510198  RH  072%=      5-min Rain = 0
KPD4 261743Z 18015KT 25/20 A2999 RMK A01 T02530197  RH  071%=      5-min Rain = 0
KPD4 261744Z 16015KT 25/20 A2999 RMK A01 T02530196  RH  070%=      5-min Rain = 0
KPD4 261745Z 16017KT 25/19 A2998 RMK A01 T02510194  RH  071%=      5-min Rain = 0
KPD4 261746Z 16017KT 25/19 A2998 RMK A01 T02480193  RH  072%=      5-min Rain = 0
KPD4 261747Z 16017KT 25/19 A2998 RMK A01 T02460193  RH  072%=      5-min Rain = 0
KPD4 261748Z 15014KT 25/19 A2998 RMK A01 T02460194  RH  073%=      5-min Rain = 0
KPD4 261749Z 16018KT 25/19 A2998 RMK A01 T02480193  RH  071%=      5-min Rain = 0
KPD4 261750Z 16018KT 25/19 A2998 RMK A01 T02480191  RH  070%=      5-min Rain = 0
KPD4 261751Z 18018KT 25/19 A2998 RMK A01 T02480190  RH  070%=      5-min Rain = 0
KPD4 261752Z 17018KT 25/19 A2998 RMK A01 T02480191  RH  071%=      5-min Rain = 0
KPD4 261753Z 17016KT 25/19 A2998 RMK A01 T02490188  RH  069%=      5-min Rain = 0
KPD4 261754Z 18015KT 25/19 A2998 RMK A01 T02490188  RH  069%=      5-min Rain = 0
KPD4 261755Z 17015KT 25/19 A2998 RMK A01 T02470190  RH  070%=      5-min Rain = 0
KPD4 261756Z 16017KT 25/19 A2998 RMK A01 T02480192  RH  071%=      5-min Rain = 0
KPD4 261757Z 15015KT 25/20 A2998 RMK A01 T02500195  RH  071%=      5-min Rain = 0
KPD4 261758Z 15015KT 25/19 A2998 RMK A01 T02510194  RH  070%=      5-min Rain = 0
KPD4 261759Z 15015KT 25/20 A2998 RMK A01 T02520196  RH  071%=      5-min Rain = 0
KPD4 261800Z 16016KT 25/20 A2998 RMK A01 T02520196  RH  071%=      5-min Rain = 0
KPD4 261801Z 16015KT 25/19 A2998 RMK A01 T02530194  RH  070%=      5-min Rain = 0
KPD4 261802Z 16017KT 25/20 A2997 RMK A01 T02520195  RH  071%=      5-min Rain = 0
KPD4 261803Z 17016KT 25/19 A2997 RMK A01 T02510194  RH  071%=      5-min Rain = 0
KPD4 261804Z 16014KT 25/19 A2997 RMK A01 T02520191  RH  069%=      5-min Rain = 0
KPD4 261805Z 16015G20KT 25/20 A2998 RMK A01 T02520196  RH  071%=      5-min Rain = 0
KPD4 261806Z 15017KT 25/19 A2998 RMK A01 T02510193  RH  070%=      5-min Rain = 0
KPD4 261807Z 16017KT 25/19 A2997 RMK A01 T02480191  RH  070%=      5-min Rain = 0
KPD4 261808Z 16017KT 25/19 A2997 RMK A01 T02450191  RH  072%=      5-min Rain = 0
KPD4 261809Z 17016KT 24/19 A2997 RMK A01 T02440191  RH  072%=      5-min Rain = 0
KPD4 261810Z 16016KT 24/19 A2997 RMK A01 T02440192  RH  073%=      5-min Rain = 0
KPD4 261811Z 15016KT 24/19 A2997 RMK A01 T02440192  RH  073%=      5-min Rain = 0
KPD4 261812Z 15018KT 24/19 A2997 RMK A01 T02440190  RH  072%=      5-min Rain = 0
KPD4 261813Z 15016KT 24/19 A2997 RMK A01 T02440190  RH  072%=      5-min Rain = 0
KPD4 261814Z 15015KT 24/19 A2997 RMK A01 T02430190  RH  072%=      5-min Rain = 0
KPD4 261815Z 15016KT 24/19 A2997 RMK A01 T02440190  RH  072%=      5-min Rain = 0
KPD4 261816Z 15018KT 25/19 A2997 RMK A01 T02460190  RH  071%=      5-min Rain = 0
KPD4 261817Z 15014KT 25/19 A2996 RMK A01 T02460191  RH  071%=      5-min Rain = 0
KPD4 261818Z 16013KT 25/19 A2996 RMK A01 T02460194  RH  073%=      5-min Rain = 0
KPD4 261819Z 15015KT 25/20 A2996 RMK A01 T02460195  RH  073%=      5-min Rain = 0
KPD4 261820Z 15016KT 25/19 A2996 RMK A01 T02450194  RH  073%=      5-min Rain = 0
KPD4 261821Z 15017KT 24/19 A2996 RMK A01 T02430193  RH  074%=      5-min Rain = 0
KPD4 261822Z 15019G24KT 24/19 A2996 RMK A01 T02430192  RH  073%=      5-min Rain = 0
KPD4 261823Z 15017KT 25/19 A2996 RMK A01 T02450193  RH  073%=      5-min Rain = 0
KPD4 261824Z 16019KT 25/19 A2996 RMK A01 T02470191  RH  071%=      5-min Rain = 0
KPD4 261825Z 15019KT 25/19 A2996 RMK A01 T02470192  RH  071%=      5-min Rain = 0
KPD4 261826Z 15019KT 25/19 A2996 RMK A01 T02470190  RH  071%=      5-min Rain = 0
KPD4 261827Z 16019KT 25/19 A2996 RMK A01 T02470190  RH  070%=      5-min Rain = 0
KPD4 261828Z 16018KT 25/19 A2996 RMK A01 T02470190  RH  071%=      5-min Rain = 0
KPD4 261829Z 16016KT 25/19 A2996 RMK A01 T02470192  RH  072%=      5-min Rain = 0
KPD4 261830Z 16017KT 25/19 A2996 RMK A01 T02470193  RH  072%=      5-min Rain = 0
KPD4 261831Z 16016KT 25/19 A2996 RMK A01 T02480193  RH  072%=      5-min Rain = 0
KPD4 261832Z 16018KT 25/19 A2996 RMK A01 T02470192  RH  071%=      5-min Rain = 0
KPD4 261833Z 16017KT 25/19 A2996 RMK A01 T02460190  RH  071%=      5-min Rain = 0
KPD4 261834Z 17019KT 25/19 A2996 RMK A01 T02450191  RH  072%=      5-min Rain = 0
KPD4 261835Z 15016KT 24/19 A2996 RMK A01 T02440192  RH  073%=      5-min Rain = 0
KPD4 261836Z 15017KT 24/19 A2996 RMK A01 T02440191  RH  072%=      5-min Rain = 0
KPD4 261837Z 15016KT 24/19 A2996 RMK A01 T02440192  RH  073%=      5-min Rain = 0
KPD4 261838Z 16018KT 24/19 A2996 RMK A01 T02440191  RH  072%=      5-min Rain = 0
KPD4 261839Z 16018KT 24/19 A2996 RMK A01 T02440192  RH  073%=      5-min Rain = 0
KPD4 261840Z 15021KT 24/19 A2996 RMK A01 T02430190  RH  072%=      5-min Rain = 0
KPD4 261841Z 16018KT 24/19 A2996 RMK A01 T02420190  RH  073%=      5-min Rain = 0
KPD4 261842Z 17019KT 24/19 A2996 RMK A01 T02410189  RH  072%=      5-min Rain = 0
KPD4 261843Z 16018G23KT 24/19 A2996 RMK A01 T02410188  RH  072%=      5-min Rain = 0
KPD4 261844Z 17021KT 24/18 A2996 RMK A01 T02410184  RH  071%=      5-min Rain = 0
KPD4 261845Z 16017KT 24/19 A2996 RMK A01 T02410187  RH  072%=      5-min Rain = 0
KPD4 261846Z 16018KT 24/19 A2996 RMK A01 T02400187  RH  072%=      5-min Rain = 0
KPD4 261847Z 17018KT 24/19 A2996 RMK A01 T02400188  RH  073%=      5-min Rain = 0
KPD4 261848Z 17016KT 24/19 A2996 RMK A01 T02400189  RH  073%=      5-min Rain = 0
KPD4 261849Z 16015KT 24/19 A2996 RMK A01 T02400190  RH  074%=      5-min Rain = 0
KPD4 261850Z 16014KT 24/19 A2996 RMK A01 T02410190  RH  073%=      5-min Rain = 0
KPD4 261851Z 16013KT 24/19 A2996 RMK A01 T02410191  RH  074%=      5-min Rain = 0
KPD4 261852Z 16016KT 24/19 A2996 RMK A01 T02410190  RH  073%=      5-min Rain = 0
KPD4 261853Z 16019KT 24/19 A2996 RMK A01 T02400188  RH  073%=      5-min Rain = 0
KPD4 261854Z 16017KT 24/19 A2996 RMK A01 T02380188  RH  074%=      5-min Rain = 0
KPD4 261855Z 17016KT 24/19 A2996 RMK A01 T02370189  RH  075%=      5-min Rain = 0
KPD4 261856Z 17018G23KT 24/19 A2996 RMK A01 T02360188  RH  074%=      5-min Rain = 0
KPD4 261857Z 17014KT 24/19 A2996 RMK A01 T02360189  RH  075%=      5-min Rain = 0
KPD4 261858Z 17015KT 24/19 A2996 RMK A01 T02360189  RH  075%=      5-min Rain = 0
KPD4 261859Z 17016KT 24/19 A2996 RMK A01 T02370189  RH  075%=      5-min Rain = 0
KPD4 261900Z 17019KT 24/19 A2996 RMK A01 T02370189  RH  075%=      5-min Rain = 0
KPD4 261901Z 17017KT 24/19 A2996 RMK A01 T02370189  RH  074%=      5-min Rain = 0
KPD4 261902Z 17017KT 24/19 A2996 RMK A01 T02370189  RH  074%=      5-min Rain = 0
KPD4 261903Z 17016KT 24/19 A2996 RMK A01 T02370189  RH  075%=      5-min Rain = 0
KPD4 261904Z 16017G22KT 24/19 A2996 RMK A01 T02370190  RH  075%=      5-min Rain = 0
KPD4 261905Z 16019KT 24/19 A2996 RMK A01 T02370187  RH  073%=      5-min Rain = 0
KPD4 261906Z 16021KT 24/19 A2996 RMK A01 T02370186  RH  073%=      5-min Rain = 0
KPD4 261907Z 17017KT 24/19 A2996 RMK A01 T02360186  RH  073%=      5-min Rain = 0
KPD4 261908Z 17017G23KT 24/19 A2996 RMK A01 T02360189  RH  075%=      5-min Rain = 0
KPD4 261909Z 17021KT 24/19 A2996 RMK A01 T02370186  RH  073%=      5-min Rain = 0
KPD4 261910Z 16022KT 24/19 A2996 RMK A01 T02360186  RH  073%=      5-min Rain = 0
KPD4 261911Z 15019KT 24/19 A2996 RMK A01 T02350186  RH  074%=      5-min Rain = 0
KPD4 261912Z 15018KT 24/19 A2996 RMK A01 T02350187  RH  075%=      5-min Rain = 0
KPD4 261913Z 16017KT 23/19 A2996 RMK A01 T02340188  RH  075%=      5-min Rain = 0
KPD4 261914Z 15017KT 23/19 A2996 RMK A01 T02340188  RH  075%=      5-min Rain = 0
KPD4 261915Z 15019G26KT 23/19 A2996 RMK A01 T02330188  RH  076%=      5-min Rain = 0
KPD4 261916Z 16018KT 23/19 A2996 RMK A01 T02330188  RH  076%=      5-min Rain = 0
KPD4 261917Z 17017KT 23/19 A2996 RMK A01 T02330189  RH  076%=      5-min Rain = 0
KPD4 261918Z 17020KT 23/19 A2996 RMK A01 T02330188  RH  076%=      5-min Rain = 0
KPD4 261919Z 17019KT 23/19 A2996 RMK A01 T02330187  RH  075%=      5-min Rain = 0
KPD4 261920Z 16018KT 23/19 A2996 RMK A01 T02330187  RH  075%=      5-min Rain = 0
KPD4 261921Z 16016KT 23/19 A2996 RMK A01 T02330188  RH  076%=      5-min Rain = 0
KPD4 261922Z 16017KT 23/19 A2996 RMK A01 T02340187  RH  075%=      5-min Rain = 0
KPD4 261923Z 16016KT 23/19 A2996 RMK A01 T02340187  RH  075%=      5-min Rain = 0
KPD4 261924Z 16017KT 23/19 A2996 RMK A01 T02330187  RH  075%=      5-min Rain = 0
KPD4 261925Z 16016KT 23/19 A2996 RMK A01 T02330187  RH  076%=      5-min Rain = 0
KPD4 261926Z 16013KT 23/19 A2996 RMK A01 T02330189  RH  076%=      5-min Rain = 0
KPD4 261927Z 16016G22KT 23/19 A2996 RMK A01 T02320189  RH  077%=      5-min Rain = 0
KPD4 261928Z 16020KT 23/19 A2996 RMK A01 T02330188  RH  076%=      5-min Rain = 0
KPD4 261929Z 16018KT 23/19 A2996 RMK A01 T02320188  RH  076%=      5-min Rain = 0
KPD4 261930Z 16016KT 23/19 A2996 RMK A01 T02320189  RH  077%=      5-min Rain = 0
KPD4 261931Z 16016KT 23/19 A2996 RMK A01 T02320189  RH  077%=      5-min Rain = 0
KPD4 261932Z 16016KT 23/19 A2996 RMK A01 T02320189  RH  077%=      5-min Rain = 0
KPD4 261933Z 16014KT 23/19 A2996 RMK A01 T02320190  RH  077%=      5-min Rain = 0
KPD4 261934Z 17016KT 23/19 A2996 RMK A01 T02310189  RH  077%=      5-min Rain = 0
KPD4 261935Z 17016KT 23/19 A2996 RMK A01 T02310189  RH  077%=      5-min Rain = 0
KPD4 261936Z 17014KT 23/19 A2996 RMK A01 T02310188  RH  077%=      5-min Rain = 0
KPD4 261937Z 17014KT 23/19 A2996 RMK A01 T02310189  RH  077%=      5-min Rain = 0
KPD4 261938Z 16013KT 23/19 A2996 RMK A01 T02310189  RH  077%=      5-min Rain = 0
KPD4 261939Z 17014KT 23/19 A2996 RMK A01 T02310189  RH  077%=      5-min Rain = 0
KPD4 261940Z 17016KT 23/19 A2995 RMK A01 T02320187  RH  076%=      5-min Rain = 0
KPD4 261941Z 17017KT 23/19 A2995 RMK A01 T02320187  RH  076%=      5-min Rain = 0
KPD4 261942Z 17017KT 23/19 A2995 RMK A01 T02320188  RH  076%=      5-min Rain = 0
KPD4 261943Z 17015KT 23/19 A2996 RMK A01 T02330188  RH  076%=      5-min Rain = 0
KPD4 261944Z 17017KT 23/19 A2996 RMK A01 T02330187  RH  075%=      5-min Rain = 0
KPD4 261945Z 18015KT 23/19 A2996 RMK A01 T02330186  RH  075%=      5-min Rain = 0
KPD4 261946Z 17016KT 23/19 A2996 RMK A01 T02330188  RH  075%=      5-min Rain = 0
KPD4 261947Z 17017KT 23/19 A2996 RMK A01 T02330187  RH  075%=      5-min Rain = 0
KPD4 261948Z 17016KT 23/19 A2996 RMK A01 T02330186  RH  075%=      5-min Rain = 0
KPD4 261949Z 17016KT 23/19 A2996 RMK A01 T02320186  RH  075%=      5-min Rain = 0
KPD4 261950Z 17015KT 23/19 A2995 RMK A01 T02310185  RH  075%=      5-min Rain = 0
KPD4 261951Z 17016KT 23/19 A2995 RMK A01 T02310186  RH  076%=      5-min Rain = 0
KPD4 261952Z 17015KT 23/19 A2995 RMK A01 T02320187  RH  076%=      5-min Rain = 0
KPD4 261953Z 17013KT 23/19 A2995 RMK A01 T02320186  RH  075%=      5-min Rain = 0
KPD4 261954Z 18014KT 23/19 A2995 RMK A01 T02330187  RH  076%=      5-min Rain = 0
KPD4 261955Z 17015KT 23/19 A2995 RMK A01 T02330186  RH  075%=      5-min Rain = 0
KPD4 261956Z 16011KT 23/19 A2995 RMK A01 T02330189  RH  076%=      5-min Rain = 0
KPD4 261957Z 17012KT 24/19 A2995 RMK A01 T02350190  RH  076%=      5-min Rain = 0
KPD4 261958Z 16016KT 24/19 A2995 RMK A01 T02350187  RH  074%=      5-min Rain = 0
KPD4 261959Z 16014KT 24/19 A2995 RMK A01 T02350187  RH  075%=      5-min Rain = 0
KPD4 262000Z 16014KT 23/19 A2995 RMK A01 T02340187  RH  075%=      5-min Rain = 0
KPD4 262001Z 16016KT 23/19 A2995 RMK A01 T02330185  RH  074%=      5-min Rain = 0
KPD4 262002Z 16014KT 23/19 A2995 RMK A01 T02320185  RH  075%=      5-min Rain = 0
KPD4 262003Z 17016KT 23/19 A2995 RMK A01 T02310186  RH  075%=      5-min Rain = 0
KPD4 262004Z 16014KT 23/19 A2995 RMK A01 T02310187  RH  076%=      5-min Rain = 0
KPD4 262005Z 16012KT 23/19 A2995 RMK A01 T02310188  RH  077%=      5-min Rain = 0
KPD4 262006Z 15013KT 23/19 A2995 RMK A01 T02310187  RH  076%=      5-min Rain = 0
KPD4 262007Z 16014KT 23/19 A2995 RMK A01 T02310186  RH  076%=      5-min Rain = 0
KPD4 262008Z 16014KT 23/19 A2995 RMK A01 T02310186  RH  076%=      5-min Rain = 0
KPD4 262009Z 17015KT 23/19 A2995 RMK A01 T02310187  RH  076%=      5-min Rain = 0
KPD4 262010Z 16015KT 23/19 A2995 RMK A01 T02310186  RH  076%=      5-min Rain = 0
KPD4 262011Z 17014KT 23/19 A2995 RMK A01 T02310186  RH  076%=      5-min Rain = 0
KPD4 262012Z 16015KT 23/19 A2994 RMK A01 T02310186  RH  075%=      5-min Rain = 0
KPD4 262013Z 16014KT 23/19 A2994 RMK A01 T02310186  RH  076%=      5-min Rain = 0
KPD4 262014Z 16014KT 23/19 A2994 RMK A01 T02310188  RH  077%=      5-min Rain = 0
KPD4 262015Z 16015G20KT 23/19 A2994 RMK A01 T02310189  RH  078%=      5-min Rain = 0
KPD4 262016Z 16018KT 23/19 A2994 RMK A01 T02290188  RH  078%=      5-min Rain = 0
KPD4 262017Z 15018KT 23/19 A2994 RMK A01 T02280188  RH  078%=      5-min Rain = 0
KPD4 262018Z 15017KT 23/19 A2994 RMK A01 T02260188  RH  079%=      5-min Rain = 0
KPD4 262019Z 16021KT 23/19 A2994 RMK A01 T02250187  RH  079%=      5-min Rain = 0
KPD4 262020Z 15019KT 22/19 A2994 RMK A01 T02220187  RH  080%=      5-min Rain = 0
KPD4 262021Z 15018KT 22/19 A2994 RMK A01 T02200187  RH  082%=      5-min Rain = 0
KPD4 262022Z 15018KT 22/19 A2994 RMK A01 T02190188  RH  082%=      5-min Rain = 0
KPD4 262023Z 15016KT 22/19 A2994 RMK A01 T02180188  RH  083%=      5-min Rain = 0
KPD4 262024Z 15014KT 22/19 A2994 RMK A01 T02180189  RH  083%=      5-min Rain = 0
KPD4 262025Z 16013KT 22/19 A2994 RMK A01 T02170189  RH  084%=      5-min Rain = 0
KPD4 262026Z 15013KT 22/19 A2994 RMK A01 T02170189  RH  084%=      5-min Rain = 0
KPD4 262027Z 16016KT 22/19 A2994 RMK A01 T02170189  RH  084%=      5-min Rain = 0
KPD4 262028Z 16014KT 22/19 A2994 RMK A01 T02170188  RH  084%=      5-min Rain = 0
KPD4 262029Z 15016KT 22/19 A2994 RMK A01 T02170188  RH  084%=      5-min Rain = 0
KPD4 262030Z 16015KT 22/19 A2994 RMK A01 T02160188  RH  084%=      5-min Rain = 0
KPD4 262031Z 16015KT 22/19 A2994 RMK A01 T02160189  RH  084%=      5-min Rain = 0
KPD4 262032Z 16014KT 22/19 A2994 RMK A01 T02160189  RH  085%=      5-min Rain = 0
KPD4 262033Z 16013G18KT 22/19 A2995 RMK A01 T02160190  RH  085%=      5-min Rain = 0
KPD4 262034Z 16016KT 22/19 A2995 RMK A01 T02160189  RH  085%=      5-min Rain = 0
KPD4 262035Z 17017KT 22/19 A2995 RMK A01 T02150189  RH  085%=      5-min Rain = 0
KPD4 262036Z 17014KT 22/19 A2995 RMK A01 T02160189  RH  085%=      5-min Rain = 0
KPD4 262037Z 17016KT 22/19 A2995 RMK A01 T02150189  RH  085%=      5-min Rain = 0
KPD4 262038Z 16016KT 22/19 A2995 RMK A01 T02150189  RH  085%=      5-min Rain = 0
KPD4 262039Z 16015KT 22/19 A2996 RMK A01 T02160189  RH  085%=      5-min Rain = 0
KPD4 262040Z 16017KT 22/19 A2996 RMK A01 T02150188  RH  085%=      5-min Rain = 0
KPD4 262041Z 16018KT 22/19 A2996 RMK A01 T02150188  RH  085%=      5-min Rain = 0
KPD4 262042Z 16017KT 21/19 A2996 RMK A01 T02140187  RH  085%=      5-min Rain = 0
KPD4 262043Z 16017KT 21/19 A2996 RMK A01 T02140187  RH  085%=      5-min Rain = 0
KPD4 262044Z 16016G21KT 21/19 A2996 RMK A01 T02130188  RH  085%=      5-min Rain = 0
KPD4 262045Z 17015KT 21/19 A2996 RMK A01 T02130188  RH  086%=      5-min Rain = 0
KPD4 262046Z 17014KT 21/19 A2996 RMK A01 T02120190  RH  087%=      5-min Rain = 0
KPD4 262047Z 16017KT 21/19 A2996 RMK A01 T02100190  RH  088%=      5-min Rain = 0
KPD4 262048Z 17019G24KT 21/19 A2996 RMK A01 T02080190  RH  089%=      5-min Rain = 0
KPD4 262049Z 17016KT 21/19 A2996 RMK A01 T02070190  RH  090%=      5-min Rain = 0.01
KPD4 262050Z 17018KT 21/19 A2996 RMK A01 T02050190  RH  091%=      5-min Rain = 0
KPD4 262051Z 17018G25KT 20/19 A2997 RMK A01 T02040191  RH  092%=      5-min Rain = 0
KPD4 262052Z 17020G25KT 20/19 A2997 RMK A01 T02030191  RH  092%=      5-min Rain = 0.01
KPD4 262053Z 18018G23KT 20/19 A2997 RMK A01 T02030191  RH  093%=      5-min Rain = 0
KPD4 262054Z 18016KT 20/19 A2998 RMK A01 T02010191  RH  094%=      5-min Rain = 0
KPD4 262055Z 17019G24KT 20/19 A2997 RMK A01 T02010192  RH  095%=      5-min Rain = 0
KPD4 262056Z 17014KT 20/19 A2997 RMK A01 T02000192  RH  095%=      5-min Rain = 0
KPD4 262057Z 18016KT 20/19 A2997 RMK A01 T01990192  RH  095%=      5-min Rain = 0.01
KPD4 262058Z 18016KT 20/19 A2998 RMK A01 T01990192  RH  096%=      5-min Rain = 0
KPD4 262059Z 18016KT 20/19 A2998 RMK A01 T01990192  RH  096%=      5-min Rain = 0
KPD4 262100Z 19014KT 20/19 A2998 RMK A01 T01990192  RH  096%=      5-min Rain = 0.02
KPD4 262101Z 19012KT 20/19 A2998 RMK A01 T01980192  RH  096%=      5-min Rain = 0.01
KPD4 262102Z 19011KT 20/19 A2998 RMK A01 T01980193  RH  096%=      5-min Rain = 0.01
KPD4 262103Z 19014KT 20/19 A2997 RMK A01 T01980192  RH  097%=      5-min Rain = 0
KPD4 262104Z 19012KT 20/19 A2997 RMK A01 T01980192  RH  097%=      5-min Rain = 0
KPD4 262105Z 18016KT 20/19 A2998 RMK A01 T01970192  RH  097%=      5-min Rain = 0.01
KPD4 262106Z 18014KT 20/19 A2999 RMK A01 T01980193  RH  097%=      5-min Rain = 0
KPD4 262107Z 18015G21KT 20/19 A2999 RMK A01 T01980193  RH  097%=      5-min Rain = 0.02
KPD4 262108Z 18015KT 20/19 A2998 RMK A01 T01970193  RH  097%=      5-min Rain = 0.01
KPD4 262109Z 19015KT 20/19 A2998 RMK A01 T01970193  RH  097%=      5-min Rain = 0
KPD4 262110Z 19012KT 20/19 A2998 RMK A01 T01970193  RH  097%=      5-min Rain = 0.01
KPD4 262111Z 20012KT 20/19 A2998 RMK A01 T01970193  RH  097%=      5-min Rain = 0.01
KPD4 262112Z 21011KT 20/19 A2998 RMK A01 T01970193  RH  097%=      5-min Rain = 0.01
KPD4 262113Z 22013G18KT 20/19 A2999 RMK A01 T01970194  RH  098%=      5-min Rain = 0.01
KPD4 262114Z 22018KT 20/19 A2999 RMK A01 T01970193  RH  098%=      5-min Rain = 0.05
KPD4 262115Z 20014KT 20/19 A2998 RMK A01 T01960193  RH  098%=      5-min Rain = 0.04
KPD4 262116Z 18007KT 20/19 A2995 RMK A01 T01960192  RH  098%=      5-min Rain = 0.02
KPD4 262117Z 10003KT 20/19 A2993 RMK A01 T01950192  RH  098%=      5-min Rain = 0.02
KPD4 262118Z 08007KT 20/19 A2991 RMK A01 T01950192  RH  098%=      5-min Rain = 0.01
KPD4 262119Z 08009KT 19/19 A299 RMK A01 T01940192  RH  098%=      5-min Rain = 0
KPD4 262120Z 09009KT 19/19 A299 RMK A01 T01940191  RH  098%=      5-min Rain = 0
KPD4 262121Z 08008KT 19/19 A2989 RMK A01 T01940191  RH  098%=      5-min Rain = 0
KPD4 262122Z 08009KT 19/19 A2989 RMK A01 T01940191  RH  098%=      5-min Rain = 0
KPD4 262123Z 09009KT 19/19 A2989 RMK A01 T01930191  RH  098%=      5-min Rain = 0.01
KPD4 262124Z 10011KT 19/19 A2989 RMK A01 T01930190  RH  098%=      5-min Rain = 0
KPD4 262125Z 12012KT 19/19 A2989 RMK A01 T01920188  RH  098%=      5-min Rain = 0
KPD4 262126Z 14015KT 19/19 A2991 RMK A01 T01900185  RH  097%=      5-min Rain = 0
KPD4 262127Z 15015KT 19/18 A2991 RMK A01 T01870175  RH  093%=      5-min Rain = 0
KPD4 262128Z 14018KT 18/16 A2991 RMK A01 T01830163  RH  088%=      5-min Rain = 0
KPD4 262129Z 14017KT 18/16 A2992 RMK A01 T01780157  RH  087%=      5-min Rain = 0
KPD4 262130Z 13015G21KT 18/16 A2991 RMK A01 T01750156  RH  088%=      5-min Rain = 0
KPD4 262131Z 14018KT 17/15 A2991 RMK A01 T01730152  RH  087%=      5-min Rain = 0
KPD4 262132Z 13018KT 17/15 A2991 RMK A01 T01710149  RH  087%=      5-min Rain = 0
KPD4 262133Z 13017G22KT 17/15 A299 RMK A01 T01690150  RH  088%=      5-min Rain = 0
KPD4 262134Z 13019KT 17/15 A299 RMK A01 T01680150  RH  089%=      5-min Rain = 0
KPD4 262135Z 13020KT 17/15 A299 RMK A01 T01690151  RH  089%=      5-min Rain = 0
KPD4 262136Z 14021KT 17/15 A2989 RMK A01 T01680150  RH  089%=      5-min Rain = 0
KPD4 262137Z 13020KT 17/15 A2989 RMK A01 T01690150  RH  089%=      5-min Rain = 0
KPD4 262138Z 13021G27KT 17/15 A2989 RMK A01 T01690150  RH  088%=      5-min Rain = 0
KPD4 262139Z 13020G25KT 17/15 A2988 RMK A01 T01690150  RH  088%=      5-min Rain = 0
KPD4 262140Z 13023G28KT 17/15 A2988 RMK A01 T01700150  RH  088%=      5-min Rain = 0
KPD4 262141Z 13026G31KT 17/15 A2988 RMK A01 T01700150  RH  088%=      5-min Rain = 0
KPD4 262142Z 13024G29KT 17/15 A2987 RMK A01 T01690150  RH  088%=      5-min Rain = 0
KPD4 262143Z 13018KT 17/15 A2987 RMK A01 T01700151  RH  089%=      5-min Rain = 0
KPD4 262144Z 13016KT 17/15 A2987 RMK A01 T01690151  RH  089%=      5-min Rain = 0
KPD4 262145Z 13013KT 17/15 A2987 RMK A01 T01690151  RH  089%=      5-min Rain = 0
KPD4 262146Z 13014KT 17/15 A2987 RMK A01 T01690150  RH  088%=      5-min Rain = 0
KPD4 262147Z 13011KT 17/15 A2987 RMK A01 T01710149  RH  087%=      5-min Rain = 0
KPD4 262148Z 13009KT 17/15 A2987 RMK A01 T01720150  RH  087%=      5-min Rain = 0
KPD4 262149Z 14010KT 17/15 A2987 RMK A01 T01730151  RH  086%=      5-min Rain = 0
KPD4 262150Z 16011KT 18/15 A2987 RMK A01 T01750150  RH  085%=      5-min Rain = 0
KPD4 262151Z 16012KT 18/15 A2987 RMK A01 T01770150  RH  084%=      5-min Rain = 0
KPD4 262152Z 15014KT 18/15 A2987 RMK A01 T01790151  RH  083%=      5-min Rain = 0
KPD4 262153Z 15012KT 18/15 A2987 RMK A01 T01820153  RH  083%=      5-min Rain = 0
KPD4 262154Z 14010KT 18/15 A2986 RMK A01 T01820154  RH  084%=      5-min Rain = 0
KPD4 262155Z 13014KT 18/16 A2985 RMK A01 T01820156  RH  085%=      5-min Rain = 0
KPD4 262156Z 13013KT 18/16 A2985 RMK A01 T01820157  RH  085%=      5-min Rain = 0
KPD4 262157Z 13013KT 18/16 A2985 RMK A01 T01810159  RH  087%=      5-min Rain = 0
KPD4 262158Z 13016KT 18/16 A2986 RMK A01 T01800159  RH  088%=      5-min Rain = 0
KPD4 262159Z 13019KT 18/16 A2986 RMK A01 T01800159  RH  088%=      5-min Rain = 0
KPD4 262200Z 14018KT 18/16 A2986 RMK A01 T01810160  RH  087%=      5-min Rain = 0
KPD4 262201Z 15021KT 18/16 A2988 RMK A01 T01820161  RH  087%=      5-min Rain = 0
KPD4 262202Z 15021G26KT 18/16 A2988 RMK A01 T01840164  RH  088%=      5-min Rain = 0
KPD4 262203Z 15023G31KT 18/17 A2989 RMK A01 T01840165  RH  089%=      5-min Rain = 0
KPD4 262204Z 15025KT 18/17 A2989 RMK A01 T01840166  RH  089%=      5-min Rain = 0
KPD4 262205Z 14026G32KT 18/17 A2988 RMK A01 T01840167  RH  090%=      5-min Rain = 0
KPD4 262206Z 15027G32KT 18/17 A2989 RMK A01 T01840167  RH  090%=      5-min Rain = 0
KPD4 262207Z 15024G32KT 18/17 A2989 RMK A01 T01840169  RH  091%=      5-min Rain = 0
KPD4 262208Z 14021G26KT 18/17 A2988 RMK A01 T01840171  RH  092%=      5-min Rain = 0
KPD4 262209Z 14023KT 18/17 A2988 RMK A01 T01840172  RH  093%=      5-min Rain = 0
KPD4 262210Z 14025G31KT 18/17 A2988 RMK A01 T01840173  RH  093%=      5-min Rain = 0
KPD4 262211Z 14024G29KT 19/17 A2987 RMK A01 T01850172  RH  092%=      5-min Rain = 0
KPD4 262212Z 15027G34KT 19/17 A2987 RMK A01 T01850170  RH  091%=      5-min Rain = 0
KPD4 262213Z 14027G32KT 19/17 A2987 RMK A01 T01860168  RH  089%=      5-min Rain = 0
KPD4 262214Z 14028G33KT 19/17 A2986 RMK A01 T01860165  RH  088%=      5-min Rain = 0
KPD4 262215Z 13027KT 19/17 A2985 RMK A01 T01860165  RH  087%=      5-min Rain = 0
KPD4 262216Z 13027KT 19/17 A2985 RMK A01 T01860166  RH  088%=      5-min Rain = 0
KPD4 262217Z 13028G36KT 19/17 A2984 RMK A01 T01870167  RH  088%=      5-min Rain = 0
KPD4 262218Z 14028G34KT 19/17 A2985 RMK A01 T01870167  RH  089%=      5-min Rain = 0
KPD4 262219Z 14030G39KT 19/17 A2986 RMK A01 T01870170  RH  090%=      5-min Rain = 0
KPD4 262220Z 14027G33KT 19/17 A2986 RMK A01 T01870172  RH  091%=      5-min Rain = 0
KPD4 262221Z 13030KT 19/17 A2986 RMK A01 T01870173  RH  091%=      5-min Rain = 0
KPD4 262222Z 14028G34KT 19/17 A2986 RMK A01 T01880173  RH  091%=      5-min Rain = 0
KPD4 262223Z 14029G34KT 19/17 A2987 RMK A01 T01880174  RH  091%=      5-min Rain = 0
KPD4 262224Z 14025KT 19/17 A2987 RMK A01 T01890174  RH  091%=      5-min Rain = 0
KPD4 262225Z 14023G28KT 19/17 A2987 RMK A01 T01900173  RH  090%=      5-min Rain = 0
KPD4 262226Z 13024G32KT 19/17 A2987 RMK A01 T01900173  RH  090%=      5-min Rain = 0
KPD4 262227Z 14024G29KT 19/17 A2987 RMK A01 T01910173  RH  090%=      5-min Rain = 0
KPD4 262228Z 14026G32KT 19/17 A2987 RMK A01 T01910174  RH  090%=      5-min Rain = 0
KPD4 262229Z 14025KT 19/18 A2987 RMK A01 T01920176  RH  091%=      5-min Rain = 0
KPD4 262230Z 14024KT 19/18 A2987 RMK A01 T01920177  RH  091%=      5-min Rain = 0
KPD4 262231Z 14026G32KT 19/18 A2987 RMK A01 T01920179  RH  092%=      5-min Rain = 0
KPD4 262232Z 14024KT 19/18 A2987 RMK A01 T01930180  RH  093%=      5-min Rain = 0
KPD4 262233Z 14026KT 19/18 A2987 RMK A01 T01930182  RH  093%=      5-min Rain = 0
KPD4 262234Z 14027KT 19/18 A2987 RMK A01 T01940183  RH  093%=      5-min Rain = 0
KPD4 262235Z 14025KT 19/18 A2987 RMK A01 T01940183  RH  093%=      5-min Rain = 0
KPD4 262236Z 14027KT 20/18 A2988 RMK A01 T01950184  RH  094%=      5-min Rain = 0
KPD4 262237Z 15023KT 20/19 A2988 RMK A01 T01950185  RH  094%=      5-min Rain = 0
KPD4 262238Z 15023G32KT 20/19 A2988 RMK A01 T01960186  RH  094%=      5-min Rain = 0
KPD4 262239Z 15026KT 20/19 A2988 RMK A01 T01960186  RH  094%=      5-min Rain = 0
KPD4 262240Z 15024G32KT 20/19 A2989 RMK A01 T01970187  RH  094%=      5-min Rain = 0
KPD4 262241Z 15023G28KT 20/19 A2989 RMK A01 T01980188  RH  094%=      5-min Rain = 0
KPD4 262242Z 15022KT 20/19 A2989 RMK A01 T01980188  RH  094%=      5-min Rain = 0
KPD4 262243Z 15021G28KT 20/19 A2989 RMK A01 T01980188  RH  094%=      5-min Rain = 0
KPD4 262244Z 15023G28KT 20/19 A2988 RMK A01 T01990188  RH  094%=      5-min Rain = 0
KPD4 262245Z 15021G26KT 20/19 A2988 RMK A01 T02000189  RH  093%=      5-min Rain = 0
KPD4 262246Z 15024G29KT 20/19 A2988 RMK A01 T02000190  RH  094%=      5-min Rain = 0
KPD4 262247Z 15027KT 20/19 A2988 RMK A01 T02000189  RH  093%=      5-min Rain = 0
KPD4 262248Z 15024G31KT 20/19 A2987 RMK A01 T02010189  RH  093%=      5-min Rain = 0
KPD4 262249Z 15024G30KT 20/19 A2987 RMK A01 T02010189  RH  093%=      5-min Rain = 0
KPD4 262250Z 14025KT 20/19 A2987 RMK A01 T02010189  RH  093%=      5-min Rain = 0
KPD4 262251Z 14025KT 20/19 A2987 RMK A01 T02010189  RH  093%=      5-min Rain = 0
KPD4 262252Z 14026G31KT 20/19 A2986 RMK A01 T02020189  RH  092%=      5-min Rain = 0
KPD4 262253Z 14021G26KT 20/19 A2986 RMK A01 T02020189  RH  092%=      5-min Rain = 0
KPD4 262254Z 14027G33KT 20/19 A2986 RMK A01 T02020189  RH  093%=      5-min Rain = 0
KPD4 262255Z 14026KT 20/19 A2986 RMK A01 T02020189  RH  092%=      5-min Rain = 0
KPD4 262256Z 14025G30KT 20/19 A2986 RMK A01 T02020189  RH  092%=      5-min Rain = 0
KPD4 262257Z 14026G31KT 20/19 A2986 RMK A01 T02020189  RH  092%=      5-min Rain = 0
KPD4 262258Z 14023G28KT 20/19 A2986 RMK A01 T02020189  RH  092%=      5-min Rain = 0
KPD4 262259Z 14026G31KT 20/19 A2985 RMK A01 T02020189  RH  092%=      5-min Rain = 0
KPD4 262300Z 14024KT 20/19 A2985 RMK A01 T02020189  RH  092%=      5-min Rain = 0
KPD4 262301Z 14022KT 20/19 A2985 RMK A01 T02020190  RH  093%=      5-min Rain = 0
KPD4 262302Z 14029KT 20/19 A2985 RMK A01 T02020189  RH  093%=      5-min Rain = 0
KPD4 262303Z 14026G34KT 20/19 A2985 RMK A01 T02010188  RH  092%=      5-min Rain = 0
KPD4 262304Z 15026G31KT 20/19 A2986 RMK A01 T02020189  RH  092%=      5-min Rain = 0
KPD4 262305Z 14029KT 20/19 A2986 RMK A01 T02010188  RH  092%=      5-min Rain = 0
KPD4 262306Z 14027G32KT 20/19 A2985 RMK A01 T02020188  RH  092%=      5-min Rain = 0
KPD4 262307Z 14026G33KT 20/19 A2985 RMK A01 T02020188  RH  092%=      5-min Rain = 0
KPD4 262308Z 14028KT 20/19 A2984 RMK A01 T02020188  RH  092%=      5-min Rain = 0
KPD4 262309Z 14021KT 20/19 A2984 RMK A01 T02030189  RH  092%=      5-min Rain = 0
KPD4 262310Z 13021G28KT 20/19 A2984 RMK A01 T02030189  RH  092%=      5-min Rain = 0
KPD4 262311Z 14023G29KT 20/19 A2984 RMK A01 T02040190  RH  092%=      5-min Rain = 0
KPD4 262312Z 14022KT 21/19 A2984 RMK A01 T02050191  RH  092%=      5-min Rain = 0
KPD4 262313Z 14027G36KT 21/19 A2983 RMK A01 T02050190  RH  091%=      5-min Rain = 0
KPD4 262314Z 14023G28KT 21/19 A2983 RMK A01 T02050190  RH  091%=      5-min Rain = 0
KPD4 262315Z 13024KT 21/19 A2982 RMK A01 T02060191  RH  091%=      5-min Rain = 0
KPD4 262316Z 13026G31KT 21/19 A2983 RMK A01 T02050190  RH  091%=      5-min Rain = 0
KPD4 262317Z 14026G33KT 21/19 A2983 RMK A01 T02050191  RH  091%=      5-min Rain = 0
KPD4 262318Z 14024KT 21/19 A2983 RMK A01 T02050191  RH  092%=      5-min Rain = 0
KPD4 262319Z 14025KT 20/19 A2983 RMK A01 T02040190  RH  092%=      5-min Rain = 0
KPD4 262320Z 13023KT 20/19 A2982 RMK A01 T02040190  RH  092%=      5-min Rain = 0
KPD4 262321Z 13022KT 20/19 A2982 RMK A01 T02030189  RH  092%=      5-min Rain = 0
KPD4 262322Z 13020KT 20/19 A2982 RMK A01 T02040190  RH  092%=      5-min Rain = 0
KPD4 262323Z 13022KT 20/19 A2982 RMK A01 T02040190  RH  092%=      5-min Rain = 0
KPD4 262324Z 13026G33KT 21/19 A2981 RMK A01 T02050189  RH  091%=      5-min Rain = 0
KPD4 262325Z 13027G33KT 21/19 A2981 RMK A01 T02050188  RH  090%=      5-min Rain = 0
KPD4 262326Z 15025KT 21/19 A2983 RMK A01 T02060190  RH  091%=      5-min Rain = 0
KPD4 262327Z 15027G34KT 21/19 A2983 RMK A01 T02060190  RH  091%=      5-min Rain = 0
KPD4 262328Z 14021KT 21/19 A2982 RMK A01 T02060190  RH  090%=      5-min Rain = 0
KPD4 262329Z 14025G30KT 21/19 A2982 RMK A01 T02060191  RH  091%=      5-min Rain = 0
KPD4 262330Z 14022G29KT 21/19 A2983 RMK A01 T02060190  RH  091%=      5-min Rain = 0
KPD4 262331Z 14027G35KT 21/19 A2983 RMK A01 T02060190  RH  091%=      5-min Rain = 0
KPD4 262332Z 15028KT 21/19 A2984 RMK A01 T02060190  RH  091%=      5-min Rain = 0
KPD4 262333Z 15028G35KT 21/19 A2984 RMK A01 T02060190  RH  091%=      5-min Rain = 0
KPD4 262334Z 14027G33KT 21/19 A2984 RMK A01 T02050190  RH  091%=      5-min Rain = 0
KPD4 262335Z 14026KT 21/19 A2983 RMK A01 T02050190  RH  091%=      5-min Rain = 0
KPD4 262336Z 14027G34KT 21/19 A2983 RMK A01 T02050191  RH  091%=      5-min Rain = 0
KPD4 262337Z 15031G38KT 21/19 A2983 RMK A01 T02050190  RH  091%=      5-min Rain = 0
KPD4 262338Z 14029G34KT 20/19 A2983 RMK A01 T02040190  RH  091%=      5-min Rain = 0
KPD4 262339Z 15031KT 20/19 A2983 RMK A01 T02040189  RH  091%=      5-min Rain = 0
KPD4 262340Z 15031G37KT 20/19 A2983 RMK A01 T02040189  RH  091%=      5-min Rain = 0
KPD4 262341Z 14030G35KT 20/19 A2983 RMK A01 T02040188  RH  091%=      5-min Rain = 0
KPD4 262342Z 14034G41KT 20/19 A2982 RMK A01 T02040188  RH  091%=      5-min Rain = 0
KPD4 262343Z 14032G39KT 20/19 A2983 RMK A01 T02030187  RH  090%=      5-min Rain = 0
KPD4 262344Z 14032G37KT 20/19 A2982 RMK A01 T02040187  RH  090%=      5-min Rain = 0
KPD4 262345Z 14029G34KT 20/19 A2982 RMK A01 T02040187  RH  090%=      5-min Rain = 0
KPD4 262346Z 15030G36KT 21/19 A2982 RMK A01 T02050187  RH  089%=      5-min Rain = 0
KPD4 262347Z 14031G37KT 21/19 A2981 RMK A01 T02060187  RH  089%=      5-min Rain = 0
KPD4 262348Z 14030G36KT 21/19 A2981 RMK A01 T02060186  RH  088%=      5-min Rain = 0
KPD4 262349Z 14029KT 21/19 A2981 RMK A01 T02070187  RH  088%=      5-min Rain = 0
KPD4 262350Z 14028G33KT 21/19 A2981 RMK A01 T02070187  RH  088%=      5-min Rain = 0
KPD4 262351Z 14025G32KT 21/19 A298 RMK A01 T02080188  RH  088%=      5-min Rain = 0
KPD4 262352Z 13030KT 21/19 A2979 RMK A01 T02080188  RH  088%=      5-min Rain = 0
KPD4 262353Z 13026KT 21/19 A2978 RMK A01 T02080187  RH  088%=      5-min Rain = 0
KPD4 262354Z 13026KT 21/19 A2978 RMK A01 T02080187  RH  088%=      5-min Rain = 0
KPD4 262355Z 13032G41KT 21/19 A2978 RMK A01 T02090187  RH  088%=      5-min Rain = 0
KPD4 262356Z 13030KT 21/19 A2977 RMK A01 T02090187  RH  087%=      5-min Rain = 0
KPD4 262357Z 13029G35KT 21/19 A2976 RMK A01 T02090187  RH  087%=      5-min Rain = 0
KPD4 262358Z 12027G33KT 21/19 A2976 RMK A01 T02080187  RH  088%=      5-min Rain = 0
KPD4 262359Z 12030KT 21/19 A2976 RMK A01 T02080187  RH  088%=      5-min Rain = 0
KPD4 270000Z 12025G30KT 21/19 A2976 RMK A01 T02080186  RH  087%=      5-min Rain = 0
KPD4 270001Z 12028G33KT 21/18 A2976 RMK A01 T02080184  RH  086%=      5-min Rain = 0
KPD4 270002Z 12026KT 21/19 A2976 RMK A01 T02090185  RH  086%=      5-min Rain = 0
KPD4 270003Z 12026G35KT 21/18 A2975 RMK A01 T02090184  RH  085%=      5-min Rain = 0
KPD4 270004Z 12029KT 21/19 A2975 RMK A01 T02100185  RH  086%=      5-min Rain = 0
KPD4 270005Z 12028G35KT 21/19 A2975 RMK A01 T02100186  RH  086%=      5-min Rain = 0
KPD4 270006Z 12027G34KT 21/19 A2976 RMK A01 T02090186  RH  087%=      5-min Rain = 0
KPD4 270007Z 12028G35KT 21/19 A2976 RMK A01 T02090186  RH  087%=      5-min Rain = 0
KPD4 270008Z 13027KT 21/19 A2977 RMK A01 T02090186  RH  087%=      5-min Rain = 0
KPD4 270009Z 14029G37KT 21/19 A2978 RMK A01 T02090186  RH  087%=      5-min Rain = 0
KPD4 270010Z 14030G36KT 21/19 A2979 RMK A01 T02100187  RH  087%=      5-min Rain = 0
KPD4 270011Z 14032G42KT 21/19 A2979 RMK A01 T02100188  RH  088%=      5-min Rain = 0
KPD4 270012Z 14028KT 21/19 A2979 RMK A01 T02080188  RH  088%=      5-min Rain = 0
KPD4 270013Z 14030G35KT 21/19 A2978 RMK A01 T02070188  RH  089%=      5-min Rain = 0
KPD4 270014Z 14024G33KT 21/19 A2978 RMK A01 T02060189  RH  089%=      5-min Rain = 0
KPD4 270015Z 14024G29KT 21/19 A2978 RMK A01 T02060189  RH  090%=      5-min Rain = 0
KPD4 270016Z 14023G29KT 21/19 A2978 RMK A01 T02060188  RH  090%=      5-min Rain = 0
KPD4 270017Z 14024KT 21/19 A2978 RMK A01 T02060188  RH  090%=      5-min Rain = 0
KPD4 270018Z 15023G36KT 21/19 A2979 RMK A01 T02050189  RH  090%=      5-min Rain = 0
KPD4 270019Z 15033G38KT 21/19 A2979 RMK A01 T02050188  RH  090%=      5-min Rain = 0
KPD4 270020Z 15028G34KT 21/19 A2979 RMK A01 T02050188  RH  090%=      5-min Rain = 0
KPD4 270021Z 15032KT 20/19 A2979 RMK A01 T02040188  RH  090%=      5-min Rain = 0
KPD4 270022Z 14024G34KT 20/19 A2978 RMK A01 T02040188  RH  090%=      5-min Rain = 0
KPD4 270023Z 14027G35KT 21/19 A2978 RMK A01 T02050188  RH  090%=      5-min Rain = 0
KPD4 270024Z 15033G40KT 21/19 A2978 RMK A01 T02050188  RH  090%=      5-min Rain = 0
KPD4 270025Z 14026G31KT 21/19 A2979 RMK A01 T02050188  RH  090%=      5-min Rain = 0
KPD4 270026Z 14027G34KT 20/19 A2979 RMK A01 T02040188  RH  090%=      5-min Rain = 0
KPD4 270027Z 15028G35KT 20/19 A2978 RMK A01 T02040187  RH  090%=      5-min Rain = 0
KPD4 270028Z 14027G35KT 20/19 A2978 RMK A01 T02040187  RH  090%=      5-min Rain = 0
KPD4 270029Z 14033KT 20/19 A2978 RMK A01 T02030186  RH  090%=      5-min Rain = 0
KPD4 270030Z 14029G36KT 20/19 A2978 RMK A01 T02030186  RH  090%=      5-min Rain = 0
KPD4 270031Z 14026G36KT 20/19 A2978 RMK A01 T02030187  RH  090%=      5-min Rain = 0
KPD4 270032Z 14025G33KT 20/19 A2978 RMK A01 T02030187  RH  090%=      5-min Rain = 0
KPD4 270033Z 14030G36KT 20/19 A2978 RMK A01 T02020186  RH  091%=      5-min Rain = 0
KPD4 270034Z 14025G30KT 20/19 A2978 RMK A01 T02020187  RH  091%=      5-min Rain = 0
KPD4 270035Z 14027KT 20/19 A2978 RMK A01 T02020187  RH  091%=      5-min Rain = 0
KPD4 270036Z 13020KT 20/19 A2977 RMK A01 T02020187  RH  091%=      5-min Rain = 0
KPD4 270037Z 14023G28KT 20/19 A2977 RMK A01 T02020187  RH  091%=      5-min Rain = 0
KPD4 270038Z 14027KT 20/19 A2977 RMK A01 T02010186  RH  091%=      5-min Rain = 0
KPD4 270039Z 13025G32KT 20/19 A2977 RMK A01 T02010186  RH  091%=      5-min Rain = 0
KPD4 270040Z 14023KT 20/19 A2977 RMK A01 T02010186  RH  091%=      5-min Rain = 0
KPD4 270041Z 14020G26KT 20/19 A2977 RMK A01 T02010186  RH  091%=      5-min Rain = 0
KPD4 270042Z 14018KT 20/19 A2977 RMK A01 T02000186  RH  091%=      5-min Rain = 0
KPD4 270043Z 14023KT 20/19 A2977 RMK A01 T02000186  RH  091%=      5-min Rain = 0
KPD4 270044Z 13025G30KT 20/19 A2977 RMK A01 T02000186  RH  091%=      5-min Rain = 0
KPD4 270045Z 14022G29KT 20/19 A2977 RMK A01 T02000186  RH  091%=      5-min Rain = 0
KPD4 270046Z 14023KT 20/19 A2978 RMK A01 T02000186  RH  091%=      5-min Rain = 0
KPD4 270047Z 14019KT 20/19 A2978 RMK A01 T02000186  RH  092%=      5-min Rain = 0
KPD4 270048Z 15019KT 20/19 A2979 RMK A01 T02000186  RH  092%=      5-min Rain = 0
KPD4 270049Z 14023KT 20/19 A2979 RMK A01 T02000187  RH  092%=      5-min Rain = 0
KPD4 270050Z 15021KT 20/19 A2979 RMK A01 T02000187  RH  092%=      5-min Rain = 0
KPD4 270051Z 15022KT 20/19 A298 RMK A01 T02000187  RH  092%=      5-min Rain = 0
KPD4 270052Z 15021KT 20/19 A298 RMK A01 T02000187  RH  092%=      5-min Rain = 0
KPD4 270053Z 15021KT 20/19 A298 RMK A01 T02010187  RH  092%=      5-min Rain = 0
KPD4 270054Z 15019KT 20/19 A298 RMK A01 T02010187  RH  092%=      5-min Rain = 0
KPD4 270055Z 15021KT 20/19 A2979 RMK A01 T02010187  RH  092%=      5-min Rain = 0
KPD4 270056Z 15016KT 20/19 A2979 RMK A01 T02010187  RH  092%=      5-min Rain = 0
KPD4 270057Z 15017KT 20/19 A298 RMK A01 T02010188  RH  092%=      5-min Rain = 0
KPD4 270058Z 15018KT 20/19 A298 RMK A01 T02010187  RH  092%=      5-min Rain = 0
KPD4 270059Z 16020KT 20/19 A2979 RMK A01 T02010187  RH  092%=      5-min Rain = 0
KPD4 270100Z 15019KT 20/19 A2979 RMK A01 T02010188  RH  092%=      5-min Rain = 0
KPD4 270101Z 16017KT 20/19 A298 RMK A01 T02010188  RH  092%=      5-min Rain = 0
KPD4 270102Z 15022G27KT 20/19 A298 RMK A01 T02010187  RH  092%=      5-min Rain = 0
KPD4 270103Z 15019KT 20/19 A2979 RMK A01 T02020187  RH  091%=      5-min Rain = 0
KPD4 270104Z 15020G25KT 20/19 A2979 RMK A01 T02020187  RH  091%=      5-min Rain = 0
KPD4 270105Z 15018KT 20/19 A2979 RMK A01 T02020187  RH  091%=      5-min Rain = 0
KPD4 270106Z 15018G23KT 20/19 A298 RMK A01 T02020187  RH  091%=      5-min Rain = 0
KPD4 270107Z 15022KT 20/19 A298 RMK A01 T02020187  RH  091%=      5-min Rain = 0
KPD4 270108Z 15016KT 20/19 A2981 RMK A01 T02030187  RH  091%=      5-min Rain = 0
KPD4 270109Z 16020KT 20/19 A2981 RMK A01 T02030187  RH  091%=      5-min Rain = 0
KPD4 270110Z 15018KT 20/19 A2982 RMK A01 T02030187  RH  091%=      5-min Rain = 0
KPD4 270111Z 16020G25KT 20/19 A2982 RMK A01 T02030187  RH  091%=      5-min Rain = 0
KPD4 270112Z 16020KT 20/19 A2983 RMK A01 T02030187  RH  091%=      5-min Rain = 0
KPD4 270113Z 17020KT 20/19 A2983 RMK A01 T02040188  RH  090%=      5-min Rain = 0
KPD4 270114Z 16015KT 20/19 A2983 RMK A01 T02030187  RH  090%=      5-min Rain = 0
KPD4 270115Z 16019KT 20/19 A2984 RMK A01 T02040188  RH  091%=      5-min Rain = 0
KPD4 270116Z 17014KT 20/19 A2984 RMK A01 T02040188  RH  091%=      5-min Rain = 0
KPD4 270117Z 16018KT 20/19 A2984 RMK A01 T02040189  RH  091%=      5-min Rain = 0
KPD4 270118Z 16018KT 20/19 A2985 RMK A01 T02040189  RH  091%=      5-min Rain = 0
KPD4 270119Z 17016KT 20/19 A2985 RMK A01 T02040188  RH  091%=      5-min Rain = 0
KPD4 270120Z 17018KT 20/19 A2985 RMK A01 T02040189  RH  091%=      5-min Rain = 0
KPD4 270121Z 17017KT 20/19 A2985 RMK A01 T02040188  RH  091%=      5-min Rain = 0
KPD4 270122Z 17020G25KT 20/19 A2985 RMK A01 T02040188  RH  091%=      5-min Rain = 0
KPD4 270123Z 17021KT 20/19 A2985 RMK A01 T02040188  RH  090%=      5-min Rain = 0
KPD4 270124Z 17019KT 21/19 A2985 RMK A01 T02050188  RH  090%=      5-min Rain = 0
KPD4 270125Z 17021KT 21/19 A2985 RMK A01 T02050188  RH  090%=      5-min Rain = 0
KPD4 270126Z 17020KT 21/19 A2985 RMK A01 T02050189  RH  090%=      5-min Rain = 0
KPD4 270127Z 18020KT 21/19 A2985 RMK A01 T02050188  RH  090%=      5-min Rain = 0
KPD4 270128Z 17016KT 21/19 A2985 RMK A01 T02050188  RH  090%=      5-min Rain = 0
KPD4 270129Z 17020KT 21/19 A2985 RMK A01 T02060189  RH  090%=      5-min Rain = 0
KPD4 270130Z 17020KT 21/19 A2985 RMK A01 T02050189  RH  090%=      5-min Rain = 0
KPD4 270131Z 17017KT 21/19 A2985 RMK A01 T02050189  RH  090%=      5-min Rain = 0
KPD4 270132Z 18018KT 21/19 A2985 RMK A01 T02050189  RH  090%=      5-min Rain = 0
KPD4 270133Z 18020KT 21/19 A2985 RMK A01 T02060189  RH  090%=      5-min Rain = 0
KPD4 270134Z 17020KT 21/19 A2985 RMK A01 T02060189  RH  090%=      5-min Rain = 0
KPD4 270135Z 17019G24KT 21/19 A2985 RMK A01 T02060188  RH  090%=      5-min Rain = 0
KPD4 270136Z 17020KT 21/19 A2985 RMK A01 T02060189  RH  090%=      5-min Rain = 0
KPD4 270137Z 18020KT 21/19 A2985 RMK A01 T02060188  RH  090%=      5-min Rain = 0
KPD4 270138Z 17020G25KT 21/19 A2985 RMK A01 T02060189  RH  090%=      5-min Rain = 0
KPD4 270139Z 18020G25KT 21/19 A2985 RMK A01 T02060189  RH  090%=      5-min Rain = 0
KPD4 270140Z 18022G29KT 21/19 A2985 RMK A01 T02060189  RH  089%=      5-min Rain = 0
KPD4 270141Z 18021KT 21/19 A2985 RMK A01 T02070188  RH  089%=      5-min Rain = 0
KPD4 270142Z 17024KT 21/19 A2985 RMK A01 T02070188  RH  089%=      5-min Rain = 0
KPD4 270143Z 17020KT 21/19 A2985 RMK A01 T02070189  RH  089%=      5-min Rain = 0
KPD4 270144Z 18020KT 21/19 A2985 RMK A01 T02070189  RH  089%=      5-min Rain = 0
KPD4 270145Z 17021KT 21/19 A2985 RMK A01 T02070189  RH  089%=      5-min Rain = 0
KPD4 270146Z 18021G28KT 21/19 A2985 RMK A01 T02070189  RH  089%=      5-min Rain = 0
KPD4 270147Z 18019G27KT 21/19 A2985 RMK A01 T02070188  RH  089%=      5-min Rain = 0
KPD4 270148Z 18018KT 21/19 A2985 RMK A01 T02070188  RH  089%=      5-min Rain = 0
KPD4 270149Z 17020G25KT 21/19 A2985 RMK A01 T02070189  RH  089%=      5-min Rain = 0
KPD4 270150Z 17022G27KT 21/19 A2985 RMK A01 T02070188  RH  089%=      5-min Rain = 0
KPD4 270151Z 17020G28KT 21/19 A2985 RMK A01 T02070188  RH  089%=      5-min Rain = 0
KPD4 270152Z 17022KT 21/19 A2985 RMK A01 T02070188  RH  089%=      5-min Rain = 0
KPD4 270153Z 17021G27KT 21/19 A2986 RMK A01 T02080188  RH  089%=      5-min Rain = 0
KPD4 270154Z 17019KT 21/19 A2985 RMK A01 T02080189  RH  089%=      5-min Rain = 0
KPD4 270155Z 18019KT 21/19 A2985 RMK A01 T02080189  RH  089%=      5-min Rain = 0
KPD4 270156Z 17018KT 21/19 A2985 RMK A01 T02080189  RH  089%=      5-min Rain = 0
KPD4 270157Z 18017KT 21/19 A2986 RMK A01 T02070189  RH  089%=      5-min Rain = 0
KPD4 270158Z 17018G23KT 21/19 A2986 RMK A01 T02070189  RH  089%=      5-min Rain = 0
KPD4 270159Z 18018KT 21/19 A2986 RMK A01 T02070189  RH  089%=      5-min Rain = 0
KPD4 270200Z 18018KT 21/19 A2986 RMK A01 T02070189  RH  089%=      5-min Rain = 0
KPD4 270201Z 18016G21KT 21/19 A2986 RMK A01 T02070189  RH  089%=      5-min Rain = 0
KPD4 270202Z 18014KT 21/19 A2987 RMK A01 T02070189  RH  089%=      5-min Rain = 0
KPD4 270203Z 18018KT 21/19 A2986 RMK A01 T02070189  RH  089%=      5-min Rain = 0
KPD4 270204Z 18013KT 21/19 A2987 RMK A01 T02070189  RH  089%=      5-min Rain = 0
KPD4 270205Z 18017KT 21/19 A2986 RMK A01 T02070190  RH  089%=      5-min Rain = 0
KPD4 270206Z 18017KT 21/19 A2986 RMK A01 T02070189  RH  090%=      5-min Rain = 0
KPD4 270207Z 18015KT 21/19 A2987 RMK A01 T02070190  RH  089%=      5-min Rain = 0
KPD4 270208Z 18015KT 21/19 A2987 RMK A01 T02070189  RH  090%=      5-min Rain = 0
KPD4 270209Z 18017G23KT 21/19 A2987 RMK A01 T02080190  RH  090%=      5-min Rain = 0
KPD4 270210Z 18018KT 21/19 A2987 RMK A01 T02070189  RH  089%=      5-min Rain = 0
KPD4 270211Z 19014KT 21/19 A2987 RMK A01 T02080190  RH  089%=      5-min Rain = 0
KPD4 270212Z 19014KT 21/19 A2988 RMK A01 T02080190  RH  089%=      5-min Rain = 0
KPD4 270213Z 19016KT 21/19 A2988 RMK A01 T02080190  RH  089%=      5-min Rain = 0
KPD4 270214Z 19016KT 21/19 A2988 RMK A01 T02080190  RH  089%=      5-min Rain = 0
KPD4 270215Z 20015KT 21/19 A2988 RMK A01 T02080190  RH  089%=      5-min Rain = 0
KPD4 270216Z 19017KT 21/19 A2989 RMK A01 T02080190  RH  089%=      5-min Rain = 0
KPD4 270217Z 20016KT 21/19 A2989 RMK A01 T02080190  RH  089%=      5-min Rain = 0
KPD4 270218Z 20020KT 21/19 A2989 RMK A01 T02090190  RH  089%=      5-min Rain = 0
KPD4 270219Z 20020KT 21/19 A299 RMK A01 T02090190  RH  089%=      5-min Rain = 0
KPD4 270220Z 19018KT 21/19 A299 RMK A01 T02100190  RH  088%=      5-min Rain = 0
KPD4 270221Z 19019KT 21/19 A299 RMK A01 T02100190  RH  088%=      5-min Rain = 0
KPD4 270222Z 20017KT 21/19 A299 RMK A01 T02100190  RH  088%=      5-min Rain = 0
KPD4 270223Z 20017KT 21/19 A299 RMK A01 T02100190  RH  088%=      5-min Rain = 0
KPD4 270224Z 20020KT 21/19 A2991 RMK A01 T02100190  RH  088%=      5-min Rain = 0
KPD4 270225Z 21018KT 21/19 A2991 RMK A01 T02110190  RH  088%=      5-min Rain = 0
KPD4 270226Z 21017KT 21/19 A2992 RMK A01 T02100190  RH  088%=      5-min Rain = 0
KPD4 270227Z 23020G27KT 21/19 A2993 RMK A01 T02100191  RH  088%=      5-min Rain = 0
KPD4 270228Z 23027G33KT 21/19 A2995 RMK A01 T02110190  RH  088%=      5-min Rain = 0
KPD4 270229Z 25033G38KT 21/17 A2996 RMK A01 T02070168  RH  078%=      5-min Rain = 0
KPD4 270230Z 25035G40KT 19/14 A2996 RMK A01 T01900138  RH  072%=      5-min Rain = 0
KPD4 270231Z 24026G34KT 17/13 A2997 RMK A01 T01730134  RH  078%=      5-min Rain = 0.01
KPD4 270232Z 24024G30KT 16/14 A2997 RMK A01 T01640137  RH  084%=      5-min Rain = 0
KPD4 270233Z 24021G30KT 16/14 A2997 RMK A01 T01590137  RH  086%=      5-min Rain = 0
KPD4 270234Z 25026G36KT 16/14 A2996 RMK A01 T01560137  RH  088%=      5-min Rain = 0.01
KPD4 270235Z 25035G42KT 15/14 A2994 RMK A01 T01530136  RH  089%=      5-min Rain = 0.02
KPD4 270236Z 24039G46KT 15/14 A2993 RMK A01 T01480136  RH  092%=      5-min Rain = 0.03
KPD4 270237Z 25039G44KT 15/14 A2992 RMK A01 T01450136  RH  094%=      5-min Rain = 0.02
KPD4 270238Z 25037G44KT 14/14 A2992 RMK A01 T01430136  RH  095%=      5-min Rain = 0.02
KPD4 270239Z 25034G40KT 14/14 A2992 RMK A01 T01420136  RH  096%=      5-min Rain = 0
KPD4 270240Z 24033KT 14/14 A2993 RMK A01 T01420135  RH  096%=      5-min Rain = 0.01
KPD4 270241Z 25033KT 14/14 A2993 RMK A01 T01410135  RH  096%=      5-min Rain = 0.01
KPD4 270242Z 25030G37KT 14/14 A2993 RMK A01 T01410135  RH  096%=      5-min Rain = 0
KPD4 270243Z 25029KT 14/14 A2994 RMK A01 T01410135  RH  096%=      5-min Rain = 0
KPD4 270244Z 24029G34KT 14/14 A2994 RMK A01 T01410135  RH  096%=      5-min Rain = 0.01
KPD4 270245Z 25026G33KT 14/14 A2994 RMK A01 T01410135  RH  096%=      5-min Rain = 0
KPD4 270246Z 25025G31KT 14/14 A2994 RMK A01 T01400135  RH  096%=      5-min Rain = 0.01
KPD4 270247Z 25025G30KT 14/14 A2994 RMK A01 T01400135  RH  096%=      5-min Rain = 0.01
KPD4 270248Z 25021KT 14/14 A2995 RMK A01 T01400135  RH  097%=      5-min Rain = 0
KPD4 270249Z 24022G28KT 14/14 A2995 RMK A01 T01400135  RH  097%=      5-min Rain = 0.01
KPD4 270250Z 24020KT 14/14 A2995 RMK A01 T01400135  RH  097%=      5-min Rain = 0.01
KPD4 270251Z 24018KT 14/14 A2995 RMK A01 T01390135  RH  097%=      5-min Rain = 0.01
KPD4 270252Z 24016KT 14/14 A2995 RMK A01 T01390135  RH  097%=      5-min Rain = 0.01
KPD4 270253Z 26016KT 14/14 A2994 RMK A01 T01390135  RH  097%=      5-min Rain = 0
KPD4 270254Z 26015KT 14/14 A2994 RMK A01 T01390136  RH  098%=      5-min Rain = 0.01
KPD4 270255Z 26017KT 14/14 A2994 RMK A01 T01390135  RH  098%=      5-min Rain = 0
KPD4 270256Z 26017KT 14/14 A2994 RMK A01 T01390135  RH  097%=      5-min Rain = 0
KPD4 270257Z 26018KT 14/13 A2994 RMK A01 T01400134  RH  096%=      5-min Rain = 0
KPD4 270258Z 26015G20KT 14/13 A2994 RMK A01 T01400133  RH  096%=      5-min Rain = 0
KPD4 270259Z 25014KT 14/13 A2994 RMK A01 T01400133  RH  095%=      5-min Rain = 0
KPD4 270300Z 25019G24KT 14/13 A2994 RMK A01 T01410133  RH  095%=      5-min Rain = 0
KPD4 270301Z 25015KT 14/13 A2994 RMK A01 T01400132  RH  095%=      5-min Rain = 0.01
KPD4 270302Z 24014KT 14/13 A2994 RMK A01 T01400133  RH  095%=      5-min Rain = 0
KPD4 270303Z 25016KT 14/13 A2994 RMK A01 T01400133  RH  095%=      5-min Rain = 0
KPD4 270304Z 25015KT 14/13 A2995 RMK A01 T01400133  RH  095%=      5-min Rain = 0
KPD4 270305Z 25017KT 14/13 A2995 RMK A01 T01410133  RH  095%=      5-min Rain = 0
KPD4 270306Z 25016KT 14/13 A2995 RMK A01 T01420132  RH  094%=      5-min Rain = 0
KPD4 270307Z 25018KT 14/13 A2996 RMK A01 T01430133  RH  093%=      5-min Rain = 0
KPD4 270308Z 24018G23KT 14/13 A2996 RMK A01 T01440132  RH  092%=      5-min Rain = 0.01
KPD4 270309Z 23017KT 15/13 A2997 RMK A01 T01450132  RH  091%=      5-min Rain = 0
KPD4 270310Z 23015KT 15/13 A2997 RMK A01 T01460132  RH  091%=      5-min Rain = 0
KPD4 270311Z 23018KT 15/13 A2997 RMK A01 T01470132  RH  091%=      5-min Rain = 0.01
KPD4 270312Z 23015KT 15/13 A2997 RMK A01 T01470131  RH  090%=      5-min Rain = 0
KPD4 270313Z 23014KT 15/13 A2997 RMK A01 T01470132  RH  091%=      5-min Rain = 0
KPD4 270314Z 22013KT 15/13 A2997 RMK A01 T01460131  RH  091%=      5-min Rain = 0
KPD4 270315Z 21010KT 15/13 A2996 RMK A01 T01460131  RH  091%=      5-min Rain = 0
KPD4 270316Z 21011KT 15/13 A2996 RMK A01 T01450132  RH  091%=      5-min Rain = 0.01
KPD4 270317Z 21011KT 15/13 A2995 RMK A01 T01450131  RH  091%=      5-min Rain = 0
KPD4 270318Z 20009KT 15/13 A2995 RMK A01 T01450131  RH  091%=      5-min Rain = 0
KPD4 270319Z 20011KT 15/13 A2995 RMK A01 T01450131  RH  091%=      5-min Rain = 0
KPD4 270320Z 20009KT 15/13 A2995 RMK A01 T01450131  RH  091%=      5-min Rain = 0
KPD4 270321Z 18009KT 14/13 A2995 RMK A01 T01440131  RH  092%=      5-min Rain = 0.01
KPD4 270322Z 16009KT 14/13 A2995 RMK A01 T01440131  RH  092%=      5-min Rain = 0
KPD4 270323Z 15009KT 14/13 A2994 RMK A01 T01430132  RH  093%=      5-min Rain = 0
KPD4 270324Z 15008KT 14/13 A2994 RMK A01 T01420132  RH  094%=      5-min Rain = 0
KPD4 270325Z 15008KT 14/13 A2993 RMK A01 T01420133  RH  094%=      5-min Rain = 0
KPD4 270326Z 14009KT 14/13 A2993 RMK A01 T01410132  RH  095%=      5-min Rain = 0
KPD4 270327Z 14009KT 14/13 A2993 RMK A01 T01410132  RH  095%=      5-min Rain = 0
KPD4 270328Z 14008KT 14/13 A2993 RMK A01 T01410133  RH  095%=      5-min Rain = 0
KPD4 270329Z 14010KT 14/13 A2992 RMK A01 T01410133  RH  095%=      5-min Rain = 0
KPD4 270330Z 15010KT 14/13 A2993 RMK A01 T01410134  RH  095%=      5-min Rain = 0
KPD4 270331Z 14010KT 14/13 A2993 RMK A01 T01410134  RH  095%=      5-min Rain = 0.01
KPD4 270332Z 14010KT 14/13 A2993 RMK A01 T01420134  RH  095%=      5-min Rain = 0
KPD4 270333Z 14011KT 14/13 A2992 RMK A01 T01420134  RH  095%=      5-min Rain = 0
KPD4 270334Z 15010KT 14/13 A2993 RMK A01 T01420134  RH  095%=      5-min Rain = 0
KPD4 270335Z 15008KT 14/13 A2992 RMK A01 T01430134  RH  095%=      5-min Rain = 0.01
KPD4 270336Z 15006KT 14/13 A2992 RMK A01 T01420133  RH  094%=      5-min Rain = 0
KPD4 270337Z 15008KT 14/13 A2992 RMK A01 T01430134  RH  095%=      5-min Rain = 0
KPD4 270338Z 15009KT 14/13 A2992 RMK A01 T01430134  RH  095%=      5-min Rain = 0
KPD4 270339Z 16012KT 14/13 A2992 RMK A01 T01430133  RH  094%=      5-min Rain = 0
KPD4 270340Z 16010KT 14/13 A2991 RMK A01 T01440133  RH  093%=      5-min Rain = 0
KPD4 270341Z 15011KT 15/13 A2991 RMK A01 T01450133  RH  093%=      5-min Rain = 0
KPD4 270342Z 15010KT 14/13 A2991 RMK A01 T01440134  RH  093%=      5-min Rain = 0.01
KPD4 270343Z 15008KT 14/13 A299 RMK A01 T01440134  RH  094%=      5-min Rain = 0
KPD4 270344Z 14009KT 14/13 A2989 RMK A01 T01430134  RH  094%=      5-min Rain = 0
KPD4 270345Z 16008KT 14/13 A299 RMK A01 T01430134  RH  094%=      5-min Rain = 0
KPD4 270346Z 17009KT 14/13 A299 RMK A01 T01440133  RH  094%=      5-min Rain = 0
KPD4 270347Z 17008KT 14/13 A2989 RMK A01 T01440133  RH  093%=      5-min Rain = 0
KPD4 270348Z 17007KT 14/13 A2989 RMK A01 T01440132  RH  092%=      5-min Rain = 0
KPD4 270349Z 17007KT 15/13 A2989 RMK A01 T01450131  RH  092%=      5-min Rain = 0
KPD4 270350Z 17007KT 15/13 A2989 RMK A01 T01450132  RH  091%=      5-min Rain = 0
KPD4 270351Z 18009KT 15/13 A2989 RMK A01 T01450131  RH  091%=      5-min Rain = 0
KPD4 270352Z 19009KT 15/13 A299 RMK A01 T01460131  RH  091%=      5-min Rain = 0
KPD4 270353Z 18010KT 15/13 A2989 RMK A01 T01460132  RH  091%=      5-min Rain = 0
KPD4 270354Z 18010KT 15/13 A2989 RMK A01 T01470131  RH  091%=      5-min Rain = 0
KPD4 270355Z 17010KT 15/13 A2989 RMK A01 T01470131  RH  090%=      5-min Rain = 0
KPD4 270356Z 18009KT 15/13 A2989 RMK A01 T01470131  RH  090%=      5-min Rain = 0
KPD4 270357Z 18009KT 15/13 A2989 RMK A01 T01470131  RH  090%=      5-min Rain = 0
KPD4 270358Z 20010KT 15/13 A2989 RMK A01 T01470132  RH  090%=      5-min Rain = 0
KPD4 270359Z 21009KT 15/13 A2989 RMK A01 T01470132  RH  091%=      5-min Rain = 0
KPD4 270400Z 21010KT 15/13 A2988 RMK A01 T01470132  RH  090%=      5-min Rain = 0
KPD4 270401Z 21010KT 15/13 A2988 RMK A01 T01480131  RH  090%=      5-min Rain = 0
KPD4 270402Z 20010KT 15/13 A2988 RMK A01 T01490132  RH  090%=      5-min Rain = 0
KPD4 270403Z 20009KT 15/13 A2988 RMK A01 T01490132  RH  090%=      5-min Rain = 0
KPD4 270404Z 21010KT 15/13 A2988 RMK A01 T01490132  RH  090%=      5-min Rain = 0
KPD4 270405Z 21010KT 15/13 A2987 RMK A01 T01490131  RH  089%=      5-min Rain = 0
KPD4 270406Z 20011KT 15/13 A2987 RMK A01 T01490131  RH  089%=      5-min Rain = 0
KPD4 270407Z 20010KT 15/13 A2987 RMK A01 T01500131  RH  089%=      5-min Rain = 0
KPD4 270408Z 20009KT 15/13 A2987 RMK A01 T01490132  RH  089%=      5-min Rain = 0
KPD4 270409Z 20010KT 15/13 A2987 RMK A01 T01480132  RH  090%=      5-min Rain = 0
KPD4 270410Z 19009KT 15/13 A2987 RMK A01 T01480133  RH  091%=      5-min Rain = 0
KPD4 270411Z 19009KT 15/13 A2987 RMK A01 T01470133  RH  091%=      5-min Rain = 0
KPD4 270412Z 18010KT 15/13 A2987 RMK A01 T01470133  RH  091%=      5-min Rain = 0
KPD4 270413Z 19011KT 15/13 A2987 RMK A01 T01470132  RH  091%=      5-min Rain = 0
KPD4 270414Z 19010KT 15/13 A2987 RMK A01 T01480133  RH  091%=      5-min Rain = 0
KPD4 270415Z 19009KT 15/13 A2987 RMK A01 T01480132  RH  090%=      5-min Rain = 0
KPD4 270416Z 19010KT 15/13 A2987 RMK A01 T01480132  RH  091%=      5-min Rain = 0
KPD4 270417Z 18011KT 15/13 A2987 RMK A01 T01480133  RH  091%=      5-min Rain = 0
KPD4 270418Z 19010KT 15/13 A2986 RMK A01 T01480132  RH  090%=      5-min Rain = 0
KPD4 270419Z 19010KT 15/13 A2986 RMK A01 T01480132  RH  090%=      5-min Rain = 0
KPD4 270420Z 18011KT 15/13 A2986 RMK A01 T01490131  RH  090%=      5-min Rain = 0
KPD4 270421Z 18012KT 15/13 A2987 RMK A01 T01490132  RH  089%=      5-min Rain = 0
KPD4 270422Z 19013KT 15/13 A2987 RMK A01 T01490131  RH  089%=      5-min Rain = 0
KPD4 270423Z 19013KT 15/13 A2986 RMK A01 T01500131  RH  088%=      5-min Rain = 0
KPD4 270424Z 19012KT 15/13 A2986 RMK A01 T01510130  RH  087%=      5-min Rain = 0
KPD4 270425Z 19012KT 15/13 A2986 RMK A01 T01520130  RH  087%=      5-min Rain = 0
KPD4 270426Z 19013KT 15/13 A2986 RMK A01 T01520130  RH  087%=      5-min Rain = 0
KPD4 270427Z 19013KT 15/13 A2987 RMK A01 T01520130  RH  086%=      5-min Rain = 0
KPD4 270428Z 19012KT 15/13 A2987 RMK A01 T01520130  RH  087%=      5-min Rain = 0
KPD4 270429Z 19013KT 15/13 A2987 RMK A01 T01530130  RH  087%=      5-min Rain = 0
KPD4 270430Z 19013KT 15/13 A2987 RMK A01 T01520129  RH  086%=      5-min Rain = 0
KPD4 270431Z 19013KT 15/13 A2987 RMK A01 T01530129  RH  086%=      5-min Rain = 0
KPD4 270432Z 20012KT 15/13 A2987 RMK A01 T01530129  RH  085%=      5-min Rain = 0
KPD4 270433Z 20012KT 15/13 A2987 RMK A01 T01540129  RH  085%=      5-min Rain = 0
KPD4 270434Z 20013KT 15/13 A2987 RMK A01 T01540128  RH  084%=      5-min Rain = 0
KPD4 270435Z 21014KT 15/13 A2987 RMK A01 T01540128  RH  084%=      5-min Rain = 0
KPD4 270436Z 21014KT 16/13 A2987 RMK A01 T01550127  RH  083%=      5-min Rain = 0
KPD4 270437Z 20012KT 16/13 A2987 RMK A01 T01560128  RH  083%=      5-min Rain = 0
KPD4 270438Z 20014KT 16/13 A2987 RMK A01 T01560129  RH  084%=      5-min Rain = 0
KPD4 270439Z 20012KT 16/13 A2987 RMK A01 T01560128  RH  084%=      5-min Rain = 0
KPD4 270440Z 20012KT 16/13 A2987 RMK A01 T01560129  RH  084%=      5-min Rain = 0
KPD4 270441Z 19012KT 16/13 A2988 RMK A01 T01550130  RH  085%=      5-min Rain = 0
KPD4 270442Z 19012KT 16/13 A2988 RMK A01 T01550129  RH  085%=      5-min Rain = 0
KPD4 270443Z 19012KT 16/13 A2988 RMK A01 T01550129  RH  085%=      5-min Rain = 0
KPD4 270444Z 21014KT 16/13 A2987 RMK A01 T01550128  RH  084%=      5-min Rain = 0
KPD4 270445Z 21012KT 16/13 A2987 RMK A01 T01560128  RH  083%=      5-min Rain = 0
KPD4 270446Z 21012KT 16/13 A2987 RMK A01 T01560128  RH  083%=      5-min Rain = 0
KPD4 270447Z 20015KT 16/13 A2987 RMK A01 T01570128  RH  083%=      5-min Rain = 0
KPD4 270448Z 20012KT 16/13 A2987 RMK A01 T01570127  RH  082%=      5-min Rain = 0
KPD4 270449Z 19012KT 16/13 A2987 RMK A01 T01570128  RH  083%=      5-min Rain = 0
KPD4 270450Z 19012KT 16/13 A2988 RMK A01 T01560129  RH  084%=      5-min Rain = 0
KPD4 270451Z 19012KT 16/13 A2987 RMK A01 T01560129  RH  084%=      5-min Rain = 0
KPD4 270452Z 19012KT 16/13 A2987 RMK A01 T01550129  RH  084%=      5-min Rain = 0
KPD4 270453Z 19012KT 16/13 A2988 RMK A01 T01550128  RH  084%=      5-min Rain = 0
KPD4 270454Z 19012KT 16/13 A2988 RMK A01 T01550129  RH  084%=      5-min Rain = 0
KPD4 270455Z 19013KT 16/13 A2987 RMK A01 T01550130  RH  085%=      5-min Rain = 0
KPD4 270456Z 19012KT 16/13 A2987 RMK A01 T01550130  RH  085%=      5-min Rain = 0
KPD4 270457Z 19011KT 16/13 A2987 RMK A01 T01550131  RH  085%=      5-min Rain = 0
KPD4 270458Z 19011KT 16/13 A2987 RMK A01 T01550131  RH  086%=      5-min Rain = 0
KPD4 270459Z 20011KT 15/13 A2987 RMK A01 T01540132  RH  086%=      5-min Rain = 0

Page generated in 0.1221 seconds.